<?xml version="1.0" encoding="UTF-8" standalone="no" ?>
<gpx xmlns="http://www.topografix.com/GPX/1/1" xmlns:xsi="http://www.w3.org/2001/XMLSchema-instance" xsi:schemaLocation="http://www.topografix.com/GPX/1/1 http://www.topografix.com/GPX/1/1/gpx.xsd" version="1.1" creator="VisuGPX - https://www.visugpx.com">
  <metadata>
    <name>Petit circuit hivernal à Velo à gap sous Ceüse</name>
    <desc><![CDATA[Pour maintenir sa forme durant l\'hiver:un petit circuit tonique 
Quitter gap par route de Marseille , puis direction Neffes/Tallard/Fouillouse/Sigoyer/Pellautier..
La côte de Sigoyer donne un peu de piment à cet itinéraire tranquille]]></desc>
  </metadata>
  <trk>
    <name><![CDATA[N°5 04/02/2011]]></name>
    <trkseg>
      <trkpt lat="44.55879" lon="6.07467">
        <ele>602.403076</ele>
        <time>2011-02-04T09:34:05Z</time>
      </trkpt>
      <trkpt lat="44.55873" lon="6.07475">
        <ele>603.845215</ele>
        <time>2011-02-04T09:34:19Z</time>
      </trkpt>
      <trkpt lat="44.55873" lon="6.07475">
        <ele>602.403076</ele>
        <time>2011-02-04T09:34:21Z</time>
      </trkpt>
      <trkpt lat="44.55873" lon="6.07475">
        <ele>607.690674</ele>
        <time>2011-02-04T09:34:44Z</time>
      </trkpt>
      <trkpt lat="44.55873" lon="6.07475">
        <ele>612.49707</ele>
        <time>2011-02-04T09:34:45Z</time>
      </trkpt>
      <trkpt lat="44.55873" lon="6.07475">
        <ele>617.303711</ele>
        <time>2011-02-04T09:34:46Z</time>
      </trkpt>
      <trkpt lat="44.55873" lon="6.07475">
        <ele>621.629639</ele>
        <time>2011-02-04T09:34:47Z</time>
      </trkpt>
      <trkpt lat="44.55873" lon="6.07475">
        <ele>625.955566</ele>
        <time>2011-02-04T09:34:48Z</time>
      </trkpt>
      <trkpt lat="44.55873" lon="6.07475">
        <ele>629.800781</ele>
        <time>2011-02-04T09:34:49Z</time>
      </trkpt>
      <trkpt lat="44.55873" lon="6.07475">
        <ele>633.645996</ele>
        <time>2011-02-04T09:34:50Z</time>
      </trkpt>
      <trkpt lat="44.55873" lon="6.07475">
        <ele>637.010742</ele>
        <time>2011-02-04T09:34:51Z</time>
      </trkpt>
      <trkpt lat="44.55873" lon="6.07475">
        <ele>640.375488</ele>
        <time>2011-02-04T09:34:52Z</time>
      </trkpt>
      <trkpt lat="44.55873" lon="6.07475">
        <ele>644.220703</ele>
        <time>2011-02-04T09:34:53Z</time>
      </trkpt>
      <trkpt lat="44.55873" lon="6.07475">
        <ele>647.585205</ele>
        <time>2011-02-04T09:34:54Z</time>
      </trkpt>
      <trkpt lat="44.55873" lon="6.07475">
        <ele>650.949707</ele>
        <time>2011-02-04T09:34:55Z</time>
      </trkpt>
      <trkpt lat="44.55873" lon="6.07475">
        <ele>657.198486</ele>
        <time>2011-02-04T09:34:57Z</time>
      </trkpt>
      <trkpt lat="44.5587" lon="6.07472">
        <ele>666.330811</ele>
        <time>2011-02-04T09:35:00Z</time>
      </trkpt>
      <trkpt lat="44.55866" lon="6.07468">
        <ele>671.618164</ele>
        <time>2011-02-04T09:35:02Z</time>
      </trkpt>
      <trkpt lat="44.55858" lon="6.07463">
        <ele>678.347412</ele>
        <time>2011-02-04T09:35:05Z</time>
      </trkpt>
      <trkpt lat="44.55853" lon="6.07459">
        <ele>682.67334</ele>
        <time>2011-02-04T09:35:07Z</time>
      </trkpt>
      <trkpt lat="44.55847" lon="6.07453">
        <ele>686.518799</ele>
        <time>2011-02-04T09:35:09Z</time>
      </trkpt>
      <trkpt lat="44.55842" lon="6.07449">
        <ele>691.325195</ele>
        <time>2011-02-04T09:35:11Z</time>
      </trkpt>
      <trkpt lat="44.55837" lon="6.07443">
        <ele>694.689697</ele>
        <time>2011-02-04T09:35:13Z</time>
      </trkpt>
      <trkpt lat="44.55832" lon="6.07438">
        <ele>698.054443</ele>
        <time>2011-02-04T09:35:15Z</time>
      </trkpt>
      <trkpt lat="44.55826" lon="6.07435">
        <ele>701.899902</ele>
        <time>2011-02-04T09:35:17Z</time>
      </trkpt>
      <trkpt lat="44.5582" lon="6.07432">
        <ele>705.745117</ele>
        <time>2011-02-04T09:35:20Z</time>
      </trkpt>
      <trkpt lat="44.55812" lon="6.07434">
        <ele>709.590332</ele>
        <time>2011-02-04T09:35:23Z</time>
      </trkpt>
      <trkpt lat="44.55803" lon="6.07442">
        <ele>712.954834</ele>
        <time>2011-02-04T09:35:26Z</time>
      </trkpt>
      <trkpt lat="44.558" lon="6.07446">
        <ele>713.435547</ele>
        <time>2011-02-04T09:35:27Z</time>
      </trkpt>
      <trkpt lat="44.55782" lon="6.07453">
        <ele>717.761475</ele>
        <time>2011-02-04T09:35:31Z</time>
      </trkpt>
      <trkpt lat="44.55776" lon="6.07455">
        <ele>717.761475</ele>
        <time>2011-02-04T09:35:32Z</time>
      </trkpt>
      <trkpt lat="44.55766" lon="6.07459">
        <ele>719.684326</ele>
        <time>2011-02-04T09:35:34Z</time>
      </trkpt>
      <trkpt lat="44.55759" lon="6.07465">
        <ele>721.606689</ele>
        <time>2011-02-04T09:35:36Z</time>
      </trkpt>
      <trkpt lat="44.55752" lon="6.07473">
        <ele>726.41333</ele>
        <time>2011-02-04T09:35:41Z</time>
      </trkpt>
      <trkpt lat="44.55746" lon="6.07481">
        <ele>730.258545</ele>
        <time>2011-02-04T09:35:47Z</time>
      </trkpt>
      <trkpt lat="44.55745" lon="6.07483">
        <ele>730.258545</ele>
        <time>2011-02-04T09:35:48Z</time>
      </trkpt>
      <trkpt lat="44.5573" lon="6.07508">
        <ele>733.623291</ele>
        <time>2011-02-04T09:35:54Z</time>
      </trkpt>
      <trkpt lat="44.55715" lon="6.07541">
        <ele>736.507324</ele>
        <time>2011-02-04T09:36:00Z</time>
      </trkpt>
      <trkpt lat="44.55697" lon="6.07576">
        <ele>736.507324</ele>
        <time>2011-02-04T09:36:07Z</time>
      </trkpt>
      <trkpt lat="44.55672" lon="6.07626">
        <ele>737.468506</ele>
        <time>2011-02-04T09:36:15Z</time>
      </trkpt>
      <trkpt lat="44.55662" lon="6.07645">
        <ele>738.910645</ele>
        <time>2011-02-04T09:36:19Z</time>
      </trkpt>
      <trkpt lat="44.5566" lon="6.07647">
        <ele>739.391113</ele>
        <time>2011-02-04T09:36:20Z</time>
      </trkpt>
      <trkpt lat="44.55638" lon="6.07649">
        <ele>737.468506</ele>
        <time>2011-02-04T09:36:25Z</time>
      </trkpt>
      <trkpt lat="44.55601" lon="6.07604">
        <ele>738.429932</ele>
        <time>2011-02-04T09:36:36Z</time>
      </trkpt>
      <trkpt lat="44.55595" lon="6.07596">
        <ele>739.391113</ele>
        <time>2011-02-04T09:36:38Z</time>
      </trkpt>
      <trkpt lat="44.55589" lon="6.07589">
        <ele>739.871826</ele>
        <time>2011-02-04T09:36:40Z</time>
      </trkpt>
      <trkpt lat="44.55549" lon="6.0754">
        <ele>740.352539</ele>
        <time>2011-02-04T09:36:54Z</time>
      </trkpt>
      <trkpt lat="44.55484" lon="6.07469">
        <ele>740.352539</ele>
        <time>2011-02-04T09:37:14Z</time>
      </trkpt>
      <trkpt lat="44.55441" lon="6.07407">
        <ele>740.352539</ele>
        <time>2011-02-04T09:37:30Z</time>
      </trkpt>
      <trkpt lat="44.55389" lon="6.07345">
        <ele>741.794434</ele>
        <time>2011-02-04T09:37:46Z</time>
      </trkpt>
      <trkpt lat="44.55326" lon="6.07269">
        <ele>741.794434</ele>
        <time>2011-02-04T09:38:06Z</time>
      </trkpt>
      <trkpt lat="44.55241" lon="6.07165">
        <ele>744.197754</ele>
        <time>2011-02-04T09:38:31Z</time>
      </trkpt>
      <trkpt lat="44.55189" lon="6.07096">
        <ele>743.717041</ele>
        <time>2011-02-04T09:38:49Z</time>
      </trkpt>
      <trkpt lat="44.5518" lon="6.07085">
        <ele>745.158936</ele>
        <time>2011-02-04T09:38:52Z</time>
      </trkpt>
      <trkpt lat="44.55137" lon="6.07029">
        <ele>745.158936</ele>
        <time>2011-02-04T09:39:07Z</time>
      </trkpt>
      <trkpt lat="44.55063" lon="6.06937">
        <ele>746.120361</ele>
        <time>2011-02-04T09:39:32Z</time>
      </trkpt>
      <trkpt lat="44.55006" lon="6.06867">
        <ele>746.120361</ele>
        <time>2011-02-04T09:39:51Z</time>
      </trkpt>
      <trkpt lat="44.54977" lon="6.06833">
        <ele>746.120361</ele>
        <time>2011-02-04T09:40:02Z</time>
      </trkpt>
      <trkpt lat="44.549" lon="6.06739">
        <ele>745.639648</ele>
        <time>2011-02-04T09:40:22Z</time>
      </trkpt>
      <trkpt lat="44.54889" lon="6.06725">
        <ele>745.639648</ele>
        <time>2011-02-04T09:40:25Z</time>
      </trkpt>
      <trkpt lat="44.54854" lon="6.06683">
        <ele>746.120361</ele>
        <time>2011-02-04T09:40:37Z</time>
      </trkpt>
      <trkpt lat="44.54796" lon="6.06614">
        <ele>746.120361</ele>
        <time>2011-02-04T09:40:58Z</time>
      </trkpt>
      <trkpt lat="44.54786" lon="6.06602">
        <ele>747.081543</ele>
        <time>2011-02-04T09:41:11Z</time>
      </trkpt>
      <trkpt lat="44.54766" lon="6.06579">
        <ele>745.639648</ele>
        <time>2011-02-04T09:41:21Z</time>
      </trkpt>
      <trkpt lat="44.54728" lon="6.06537">
        <ele>745.639648</ele>
        <time>2011-02-04T09:41:35Z</time>
      </trkpt>
      <trkpt lat="44.54674" lon="6.06473">
        <ele>745.158936</ele>
        <time>2011-02-04T09:41:51Z</time>
      </trkpt>
      <trkpt lat="44.54585" lon="6.06363">
        <ele>746.601074</ele>
        <time>2011-02-04T09:42:17Z</time>
      </trkpt>
      <trkpt lat="44.54581" lon="6.0636">
        <ele>746.601074</ele>
        <time>2011-02-04T09:42:18Z</time>
      </trkpt>
      <trkpt lat="44.54566" lon="6.06347">
        <ele>747.081543</ele>
        <time>2011-02-04T09:42:24Z</time>
      </trkpt>
      <trkpt lat="44.54566" lon="6.06347">
        <ele>748.523682</ele>
        <time>2011-02-04T09:42:29Z</time>
      </trkpt>
      <trkpt lat="44.54566" lon="6.06347">
        <ele>749.004395</ele>
        <time>2011-02-04T09:42:33Z</time>
      </trkpt>
      <trkpt lat="44.54566" lon="6.06347">
        <ele>747.562256</ele>
        <time>2011-02-04T09:42:36Z</time>
      </trkpt>
      <trkpt lat="44.54566" lon="6.06347">
        <ele>747.081543</ele>
        <time>2011-02-04T09:42:37Z</time>
      </trkpt>
      <trkpt lat="44.54518" lon="6.06277">
        <ele>748.043213</ele>
        <time>2011-02-04T09:42:43Z</time>
      </trkpt>
      <trkpt lat="44.54446" lon="6.06188">
        <ele>749.004395</ele>
        <time>2011-02-04T09:43:06Z</time>
      </trkpt>
      <trkpt lat="44.54394" lon="6.06125">
        <ele>746.120361</ele>
        <time>2011-02-04T09:43:22Z</time>
      </trkpt>
      <trkpt lat="44.5434" lon="6.06062">
        <ele>743.236328</ele>
        <time>2011-02-04T09:43:33Z</time>
      </trkpt>
      <trkpt lat="44.54318" lon="6.06036">
        <ele>744.197754</ele>
        <time>2011-02-04T09:43:38Z</time>
      </trkpt>
      <trkpt lat="44.543" lon="6.06013">
        <ele>743.236328</ele>
        <time>2011-02-04T09:43:43Z</time>
      </trkpt>
      <trkpt lat="44.54272" lon="6.05977">
        <ele>744.197754</ele>
        <time>2011-02-04T09:43:52Z</time>
      </trkpt>
      <trkpt lat="44.54246" lon="6.05942">
        <ele>745.158936</ele>
        <time>2011-02-04T09:44:04Z</time>
      </trkpt>
      <trkpt lat="44.54197" lon="6.05884">
        <ele>747.081543</ele>
        <time>2011-02-04T09:44:25Z</time>
      </trkpt>
      <trkpt lat="44.54163" lon="6.05839">
        <ele>749.004395</ele>
        <time>2011-02-04T09:44:42Z</time>
      </trkpt>
      <trkpt lat="44.54125" lon="6.05794">
        <ele>750.927002</ele>
        <time>2011-02-04T09:45:00Z</time>
      </trkpt>
      <trkpt lat="44.54086" lon="6.05746">
        <ele>752.368896</ele>
        <time>2011-02-04T09:45:18Z</time>
      </trkpt>
      <trkpt lat="44.54048" lon="6.05702">
        <ele>755.25293</ele>
        <time>2011-02-04T09:45:36Z</time>
      </trkpt>
      <trkpt lat="44.54008" lon="6.05654">
        <ele>756.694824</ele>
        <time>2011-02-04T09:45:55Z</time>
      </trkpt>
      <trkpt lat="44.53965" lon="6.05603">
        <ele>759.098145</ele>
        <time>2011-02-04T09:46:15Z</time>
      </trkpt>
      <trkpt lat="44.53916" lon="6.05544">
        <ele>761.982178</ele>
        <time>2011-02-04T09:46:38Z</time>
      </trkpt>
      <trkpt lat="44.53878" lon="6.05497">
        <ele>763.424072</ele>
        <time>2011-02-04T09:46:56Z</time>
      </trkpt>
      <trkpt lat="44.53833" lon="6.0544">
        <ele>766.308105</ele>
        <time>2011-02-04T09:47:18Z</time>
      </trkpt>
      <trkpt lat="44.53788" lon="6.05382">
        <ele>768.230713</ele>
        <time>2011-02-04T09:47:41Z</time>
      </trkpt>
      <trkpt lat="44.53759" lon="6.05346">
        <ele>769.672852</ele>
        <time>2011-02-04T09:47:57Z</time>
      </trkpt>
      <trkpt lat="44.53743" lon="6.05328">
        <ele>771.114746</ele>
        <time>2011-02-04T09:48:06Z</time>
      </trkpt>
      <trkpt lat="44.53754" lon="6.05291">
        <ele>772.075928</ele>
        <time>2011-02-04T09:48:14Z</time>
      </trkpt>
      <trkpt lat="44.53776" lon="6.05237">
        <ele>773.998535</ele>
        <time>2011-02-04T09:48:33Z</time>
      </trkpt>
      <trkpt lat="44.5378" lon="6.05186">
        <ele>775.44043</ele>
        <time>2011-02-04T09:48:49Z</time>
      </trkpt>
      <trkpt lat="44.53782" lon="6.05184">
        <ele>775.921143</ele>
        <time>2011-02-04T09:48:51Z</time>
      </trkpt>
      <trkpt lat="44.53778" lon="6.05159">
        <ele>774.479248</ele>
        <time>2011-02-04T09:48:59Z</time>
      </trkpt>
      <trkpt lat="44.53763" lon="6.05105">
        <ele>775.921143</ele>
        <time>2011-02-04T09:49:12Z</time>
      </trkpt>
      <trkpt lat="44.53763" lon="6.05054">
        <ele>777.363281</ele>
        <time>2011-02-04T09:49:24Z</time>
      </trkpt>
      <trkpt lat="44.53761" lon="6.05024">
        <ele>775.44043</ele>
        <time>2011-02-04T09:49:30Z</time>
      </trkpt>
      <trkpt lat="44.53759" lon="6.05014">
        <ele>776.882568</ele>
        <time>2011-02-04T09:49:32Z</time>
      </trkpt>
      <trkpt lat="44.53756" lon="6.05008">
        <ele>775.44043</ele>
        <time>2011-02-04T09:49:33Z</time>
      </trkpt>
      <trkpt lat="44.53722" lon="6.04947">
        <ele>771.595215</ele>
        <time>2011-02-04T09:49:43Z</time>
      </trkpt>
      <trkpt lat="44.53716" lon="6.04941">
        <ele>771.595215</ele>
        <time>2011-02-04T09:49:44Z</time>
      </trkpt>
      <trkpt lat="44.53654" lon="6.04862">
        <ele>768.711426</ele>
        <time>2011-02-04T09:49:55Z</time>
      </trkpt>
      <trkpt lat="44.53594" lon="6.04753">
        <ele>765.346924</ele>
        <time>2011-02-04T09:50:08Z</time>
      </trkpt>
      <trkpt lat="44.53502" lon="6.04599">
        <ele>763.904541</ele>
        <time>2011-02-04T09:50:29Z</time>
      </trkpt>
      <trkpt lat="44.53441" lon="6.04503">
        <ele>766.308105</ele>
        <time>2011-02-04T09:50:45Z</time>
      </trkpt>
      <trkpt lat="44.53374" lon="6.0443">
        <ele>764.866211</ele>
        <time>2011-02-04T09:51:01Z</time>
      </trkpt>
      <trkpt lat="44.53343" lon="6.04401">
        <ele>766.308105</ele>
        <time>2011-02-04T09:51:09Z</time>
      </trkpt>
      <trkpt lat="44.53312" lon="6.04376">
        <ele>767.269531</ele>
        <time>2011-02-04T09:51:17Z</time>
      </trkpt>
      <trkpt lat="44.53303" lon="6.04369">
        <ele>765.827637</ele>
        <time>2011-02-04T09:51:19Z</time>
      </trkpt>
      <trkpt lat="44.53238" lon="6.04355">
        <ele>762.943359</ele>
        <time>2011-02-04T09:51:30Z</time>
      </trkpt>
      <trkpt lat="44.53222" lon="6.04352">
        <ele>761.020752</ele>
        <time>2011-02-04T09:51:32Z</time>
      </trkpt>
      <trkpt lat="44.53197" lon="6.04344">
        <ele>758.617432</ele>
        <time>2011-02-04T09:51:35Z</time>
      </trkpt>
      <trkpt lat="44.5318" lon="6.04337">
        <ele>756.694824</ele>
        <time>2011-02-04T09:51:37Z</time>
      </trkpt>
      <trkpt lat="44.53152" lon="6.04326">
        <ele>754.291748</ele>
        <time>2011-02-04T09:51:40Z</time>
      </trkpt>
      <trkpt lat="44.53036" lon="6.04273">
        <ele>754.772217</ele>
        <time>2011-02-04T09:51:55Z</time>
      </trkpt>
      <trkpt lat="44.53029" lon="6.04268">
        <ele>754.772217</ele>
        <time>2011-02-04T09:51:56Z</time>
      </trkpt>
      <trkpt lat="44.5298" lon="6.04236">
        <ele>752.368896</ele>
        <time>2011-02-04T09:52:03Z</time>
      </trkpt>
      <trkpt lat="44.52949" lon="6.04216">
        <ele>748.523682</ele>
        <time>2011-02-04T09:52:07Z</time>
      </trkpt>
      <trkpt lat="44.5294" lon="6.04211">
        <ele>748.523682</ele>
        <time>2011-02-04T09:52:08Z</time>
      </trkpt>
      <trkpt lat="44.52906" lon="6.0419">
        <ele>746.601074</ele>
        <time>2011-02-04T09:52:12Z</time>
      </trkpt>
      <trkpt lat="44.52888" lon="6.04179">
        <ele>744.678223</ele>
        <time>2011-02-04T09:52:14Z</time>
      </trkpt>
      <trkpt lat="44.52816" lon="6.0414">
        <ele>740.352539</ele>
        <time>2011-02-04T09:52:22Z</time>
      </trkpt>
      <trkpt lat="44.52798" lon="6.04131">
        <ele>739.391113</ele>
        <time>2011-02-04T09:52:24Z</time>
      </trkpt>
      <trkpt lat="44.52779" lon="6.04123">
        <ele>737.949219</ele>
        <time>2011-02-04T09:52:26Z</time>
      </trkpt>
      <trkpt lat="44.52731" lon="6.04106">
        <ele>735.06543</ele>
        <time>2011-02-04T09:52:31Z</time>
      </trkpt>
      <trkpt lat="44.52712" lon="6.04098">
        <ele>733.623291</ele>
        <time>2011-02-04T09:52:33Z</time>
      </trkpt>
      <trkpt lat="44.52693" lon="6.04092">
        <ele>731.700439</ele>
        <time>2011-02-04T09:52:35Z</time>
      </trkpt>
      <trkpt lat="44.52597" lon="6.04013">
        <ele>728.81665</ele>
        <time>2011-02-04T09:52:47Z</time>
      </trkpt>
      <trkpt lat="44.52515" lon="6.03925">
        <ele>730.739258</ele>
        <time>2011-02-04T09:53:01Z</time>
      </trkpt>
      <trkpt lat="44.52503" lon="6.03915">
        <ele>729.777832</ele>
        <time>2011-02-04T09:53:03Z</time>
      </trkpt>
      <trkpt lat="44.52481" lon="6.03896">
        <ele>729.777832</ele>
        <time>2011-02-04T09:53:07Z</time>
      </trkpt>
      <trkpt lat="44.5238" lon="6.03842">
        <ele>728.335938</ele>
        <time>2011-02-04T09:53:25Z</time>
      </trkpt>
      <trkpt lat="44.52249" lon="6.03753">
        <ele>725.932617</ele>
        <time>2011-02-04T09:53:49Z</time>
      </trkpt>
      <trkpt lat="44.52144" lon="6.03657">
        <ele>724.971436</ele>
        <time>2011-02-04T09:54:09Z</time>
      </trkpt>
      <trkpt lat="44.52049" lon="6.03632">
        <ele>722.568115</ele>
        <time>2011-02-04T09:54:25Z</time>
      </trkpt>
      <trkpt lat="44.51926" lon="6.036">
        <ele>723.048828</ele>
        <time>2011-02-04T09:54:46Z</time>
      </trkpt>
      <trkpt lat="44.5187" lon="6.03576">
        <ele>722.568115</ele>
        <time>2011-02-04T09:54:57Z</time>
      </trkpt>
      <trkpt lat="44.51838" lon="6.03557">
        <ele>723.048828</ele>
        <time>2011-02-04T09:55:04Z</time>
      </trkpt>
      <trkpt lat="44.51817" lon="6.03542">
        <ele>723.048828</ele>
        <time>2011-02-04T09:55:09Z</time>
      </trkpt>
      <trkpt lat="44.51788" lon="6.03534">
        <ele>723.529541</ele>
        <time>2011-02-04T09:55:15Z</time>
      </trkpt>
      <trkpt lat="44.51766" lon="6.03535">
        <ele>721.606689</ele>
        <time>2011-02-04T09:55:19Z</time>
      </trkpt>
      <trkpt lat="44.51663" lon="6.03539">
        <ele>719.203613</ele>
        <time>2011-02-04T09:55:36Z</time>
      </trkpt>
      <trkpt lat="44.51554" lon="6.03512">
        <ele>719.684326</ele>
        <time>2011-02-04T09:55:58Z</time>
      </trkpt>
      <trkpt lat="44.51517" lon="6.03504">
        <ele>720.164795</ele>
        <time>2011-02-04T09:56:06Z</time>
      </trkpt>
      <trkpt lat="44.51452" lon="6.03479">
        <ele>723.048828</ele>
        <time>2011-02-04T09:56:25Z</time>
      </trkpt>
      <trkpt lat="44.51389" lon="6.0343">
        <ele>724.01001</ele>
        <time>2011-02-04T09:56:48Z</time>
      </trkpt>
      <trkpt lat="44.51339" lon="6.03386">
        <ele>727.374756</ele>
        <time>2011-02-04T09:57:08Z</time>
      </trkpt>
      <trkpt lat="44.51296" lon="6.03358">
        <ele>730.739258</ele>
        <time>2011-02-04T09:57:26Z</time>
      </trkpt>
      <trkpt lat="44.51257" lon="6.0334">
        <ele>733.623291</ele>
        <time>2011-02-04T09:57:42Z</time>
      </trkpt>
      <trkpt lat="44.51215" lon="6.03322">
        <ele>736.987793</ele>
        <time>2011-02-04T09:57:59Z</time>
      </trkpt>
      <trkpt lat="44.51156" lon="6.03289">
        <ele>738.910645</ele>
        <time>2011-02-04T09:58:21Z</time>
      </trkpt>
      <trkpt lat="44.51099" lon="6.03256">
        <ele>738.910645</ele>
        <time>2011-02-04T09:58:38Z</time>
      </trkpt>
      <trkpt lat="44.51058" lon="6.03212">
        <ele>736.026611</ele>
        <time>2011-02-04T09:58:48Z</time>
      </trkpt>
      <trkpt lat="44.51048" lon="6.03201">
        <ele>735.06543</ele>
        <time>2011-02-04T09:58:50Z</time>
      </trkpt>
      <trkpt lat="44.51016" lon="6.03164">
        <ele>731.700439</ele>
        <time>2011-02-04T09:58:56Z</time>
      </trkpt>
      <trkpt lat="44.5101" lon="6.03158">
        <ele>731.700439</ele>
        <time>2011-02-04T09:58:57Z</time>
      </trkpt>
      <trkpt lat="44.50983" lon="6.03135">
        <ele>729.777832</ele>
        <time>2011-02-04T09:59:01Z</time>
      </trkpt>
      <trkpt lat="44.50922" lon="6.03066">
        <ele>729.297119</ele>
        <time>2011-02-04T09:59:12Z</time>
      </trkpt>
      <trkpt lat="44.50897" lon="6.03017">
        <ele>732.181396</ele>
        <time>2011-02-04T09:59:20Z</time>
      </trkpt>
      <trkpt lat="44.50895" lon="6.03012">
        <ele>732.181396</ele>
        <time>2011-02-04T09:59:21Z</time>
      </trkpt>
      <trkpt lat="44.5087" lon="6.02958">
        <ele>735.545898</ele>
        <time>2011-02-04T09:59:35Z</time>
      </trkpt>
      <trkpt lat="44.50842" lon="6.02905">
        <ele>737.468506</ele>
        <time>2011-02-04T09:59:53Z</time>
      </trkpt>
      <trkpt lat="44.5082" lon="6.02874">
        <ele>740.352539</ele>
        <time>2011-02-04T10:00:05Z</time>
      </trkpt>
      <trkpt lat="44.50798" lon="6.02848">
        <ele>742.755859</ele>
        <time>2011-02-04T10:00:17Z</time>
      </trkpt>
      <trkpt lat="44.50791" lon="6.02841">
        <ele>741.313721</ele>
        <time>2011-02-04T10:00:20Z</time>
      </trkpt>
      <trkpt lat="44.50787" lon="6.02837">
        <ele>742.755859</ele>
        <time>2011-02-04T10:00:22Z</time>
      </trkpt>
      <trkpt lat="44.5075" lon="6.02787">
        <ele>744.678223</ele>
        <time>2011-02-04T10:00:41Z</time>
      </trkpt>
      <trkpt lat="44.5071" lon="6.02721">
        <ele>744.678223</ele>
        <time>2011-02-04T10:00:59Z</time>
      </trkpt>
      <trkpt lat="44.50681" lon="6.02684">
        <ele>741.313721</ele>
        <time>2011-02-04T10:01:07Z</time>
      </trkpt>
      <trkpt lat="44.50615" lon="6.02611">
        <ele>743.236328</ele>
        <time>2011-02-04T10:01:24Z</time>
      </trkpt>
      <trkpt lat="44.50587" lon="6.02594">
        <ele>744.197754</ele>
        <time>2011-02-04T10:01:34Z</time>
      </trkpt>
      <trkpt lat="44.50519" lon="6.02548">
        <ele>742.755859</ele>
        <time>2011-02-04T10:01:52Z</time>
      </trkpt>
      <trkpt lat="44.50486" lon="6.0254">
        <ele>742.275146</ele>
        <time>2011-02-04T10:01:59Z</time>
      </trkpt>
      <trkpt lat="44.50473" lon="6.02536">
        <ele>743.236328</ele>
        <time>2011-02-04T10:02:02Z</time>
      </trkpt>
      <trkpt lat="44.5046" lon="6.02531">
        <ele>742.275146</ele>
        <time>2011-02-04T10:02:05Z</time>
      </trkpt>
      <trkpt lat="44.50393" lon="6.02475">
        <ele>740.833008</ele>
        <time>2011-02-04T10:02:23Z</time>
      </trkpt>
      <trkpt lat="44.50375" lon="6.02462">
        <ele>739.871826</ele>
        <time>2011-02-04T10:02:28Z</time>
      </trkpt>
      <trkpt lat="44.50346" lon="6.02438">
        <ele>737.468506</ele>
        <time>2011-02-04T10:02:34Z</time>
      </trkpt>
      <trkpt lat="44.50317" lon="6.02415">
        <ele>734.104004</ele>
        <time>2011-02-04T10:02:39Z</time>
      </trkpt>
      <trkpt lat="44.5023" lon="6.02343">
        <ele>730.258545</ele>
        <time>2011-02-04T10:02:53Z</time>
      </trkpt>
      <trkpt lat="44.50216" lon="6.02336">
        <ele>728.81665</ele>
        <time>2011-02-04T10:02:55Z</time>
      </trkpt>
      <trkpt lat="44.50201" lon="6.02332">
        <ele>728.335938</ele>
        <time>2011-02-04T10:02:57Z</time>
      </trkpt>
      <trkpt lat="44.50166" lon="6.0234">
        <ele>723.048828</ele>
        <time>2011-02-04T10:03:01Z</time>
      </trkpt>
      <trkpt lat="44.50136" lon="6.02353">
        <ele>720.645508</ele>
        <time>2011-02-04T10:03:04Z</time>
      </trkpt>
      <trkpt lat="44.50115" lon="6.02362">
        <ele>717.761475</ele>
        <time>2011-02-04T10:03:06Z</time>
      </trkpt>
      <trkpt lat="44.50093" lon="6.0237">
        <ele>714.877441</ele>
        <time>2011-02-04T10:03:08Z</time>
      </trkpt>
      <trkpt lat="44.50048" lon="6.02377">
        <ele>710.070801</ele>
        <time>2011-02-04T10:03:12Z</time>
      </trkpt>
      <trkpt lat="44.50037" lon="6.02378">
        <ele>710.551514</ele>
        <time>2011-02-04T10:03:13Z</time>
      </trkpt>
      <trkpt lat="44.50018" lon="6.02382">
        <ele>709.109619</ele>
        <time>2011-02-04T10:03:15Z</time>
      </trkpt>
      <trkpt lat="44.49977" lon="6.02386">
        <ele>707.187012</ele>
        <time>2011-02-04T10:03:20Z</time>
      </trkpt>
      <trkpt lat="44.49946" lon="6.02349">
        <ele>705.745117</ele>
        <time>2011-02-04T10:03:27Z</time>
      </trkpt>
      <trkpt lat="44.49946" lon="6.02332">
        <ele>704.303223</ele>
        <time>2011-02-04T10:03:29Z</time>
      </trkpt>
      <trkpt lat="44.49947" lon="6.02322">
        <ele>702.380371</ele>
        <time>2011-02-04T10:03:30Z</time>
      </trkpt>
      <trkpt lat="44.4995" lon="6.02302">
        <ele>700.458008</ele>
        <time>2011-02-04T10:03:32Z</time>
      </trkpt>
      <trkpt lat="44.49949" lon="6.0228">
        <ele>698.534912</ele>
        <time>2011-02-04T10:03:34Z</time>
      </trkpt>
      <trkpt lat="44.49926" lon="6.02248">
        <ele>698.534912</ele>
        <time>2011-02-04T10:03:39Z</time>
      </trkpt>
      <trkpt lat="44.49907" lon="6.0225">
        <ele>698.054443</ele>
        <time>2011-02-04T10:03:42Z</time>
      </trkpt>
      <trkpt lat="44.49842" lon="6.02274">
        <ele>699.496338</ele>
        <time>2011-02-04T10:03:54Z</time>
      </trkpt>
      <trkpt lat="44.4982" lon="6.02288">
        <ele>700.458008</ele>
        <time>2011-02-04T10:03:59Z</time>
      </trkpt>
      <trkpt lat="44.498" lon="6.02312">
        <ele>701.419189</ele>
        <time>2011-02-04T10:04:05Z</time>
      </trkpt>
      <trkpt lat="44.49776" lon="6.02403">
        <ele>699.496338</ele>
        <time>2011-02-04T10:04:22Z</time>
      </trkpt>
      <trkpt lat="44.49746" lon="6.02418">
        <ele>702.380371</ele>
        <time>2011-02-04T10:04:32Z</time>
      </trkpt>
      <trkpt lat="44.49714" lon="6.02413">
        <ele>701.419189</ele>
        <time>2011-02-04T10:04:43Z</time>
      </trkpt>
      <trkpt lat="44.49706" lon="6.02413">
        <ele>703.82251</ele>
        <time>2011-02-04T10:04:46Z</time>
      </trkpt>
      <trkpt lat="44.4965" lon="6.02407">
        <ele>706.706299</ele>
        <time>2011-02-04T10:05:06Z</time>
      </trkpt>
      <trkpt lat="44.49598" lon="6.02381">
        <ele>707.667725</ele>
        <time>2011-02-04T10:05:26Z</time>
      </trkpt>
      <trkpt lat="44.49563" lon="6.02357">
        <ele>710.551514</ele>
        <time>2011-02-04T10:05:41Z</time>
      </trkpt>
      <trkpt lat="44.49519" lon="6.02329">
        <ele>713.435547</ele>
        <time>2011-02-04T10:06:00Z</time>
      </trkpt>
      <trkpt lat="44.49474" lon="6.02289">
        <ele>716.800293</ele>
        <time>2011-02-04T10:06:21Z</time>
      </trkpt>
      <trkpt lat="44.49417" lon="6.02263">
        <ele>717.761475</ele>
        <time>2011-02-04T10:06:42Z</time>
      </trkpt>
      <trkpt lat="44.49414" lon="6.02263">
        <ele>717.761475</ele>
        <time>2011-02-04T10:06:43Z</time>
      </trkpt>
      <trkpt lat="44.49357" lon="6.02259">
        <ele>715.838867</ele>
        <time>2011-02-04T10:06:56Z</time>
      </trkpt>
      <trkpt lat="44.49311" lon="6.02257">
        <ele>715.358154</ele>
        <time>2011-02-04T10:07:06Z</time>
      </trkpt>
      <trkpt lat="44.49279" lon="6.02266">
        <ele>714.396729</ele>
        <time>2011-02-04T10:07:13Z</time>
      </trkpt>
      <trkpt lat="44.49202" lon="6.02297">
        <ele>712.954834</ele>
        <time>2011-02-04T10:07:30Z</time>
      </trkpt>
      <trkpt lat="44.49141" lon="6.02291">
        <ele>710.551514</ele>
        <time>2011-02-04T10:07:44Z</time>
      </trkpt>
      <trkpt lat="44.49118" lon="6.023">
        <ele>707.667725</ele>
        <time>2011-02-04T10:07:48Z</time>
      </trkpt>
      <trkpt lat="44.49093" lon="6.02313">
        <ele>705.264404</ele>
        <time>2011-02-04T10:07:52Z</time>
      </trkpt>
      <trkpt lat="44.49078" lon="6.02321">
        <ele>701.899902</ele>
        <time>2011-02-04T10:07:54Z</time>
      </trkpt>
      <trkpt lat="44.49069" lon="6.02326">
        <ele>701.899902</ele>
        <time>2011-02-04T10:07:55Z</time>
      </trkpt>
      <trkpt lat="44.49052" lon="6.02335">
        <ele>699.977051</ele>
        <time>2011-02-04T10:07:57Z</time>
      </trkpt>
      <trkpt lat="44.49035" lon="6.02345">
        <ele>697.57373</ele>
        <time>2011-02-04T10:07:59Z</time>
      </trkpt>
      <trkpt lat="44.49017" lon="6.02353">
        <ele>695.651123</ele>
        <time>2011-02-04T10:08:01Z</time>
      </trkpt>
      <trkpt lat="44.48991" lon="6.02367">
        <ele>693.247803</ele>
        <time>2011-02-04T10:08:04Z</time>
      </trkpt>
      <trkpt lat="44.48975" lon="6.02373">
        <ele>693.247803</ele>
        <time>2011-02-04T10:08:06Z</time>
      </trkpt>
      <trkpt lat="44.48939" lon="6.02376">
        <ele>691.325195</ele>
        <time>2011-02-04T10:08:11Z</time>
      </trkpt>
      <trkpt lat="44.48923" lon="6.02375">
        <ele>689.883301</ele>
        <time>2011-02-04T10:08:13Z</time>
      </trkpt>
      <trkpt lat="44.48906" lon="6.02372">
        <ele>687.960693</ele>
        <time>2011-02-04T10:08:15Z</time>
      </trkpt>
      <trkpt lat="44.4888" lon="6.02366">
        <ele>685.076904</ele>
        <time>2011-02-04T10:08:18Z</time>
      </trkpt>
      <trkpt lat="44.48861" lon="6.0236">
        <ele>683.153809</ele>
        <time>2011-02-04T10:08:20Z</time>
      </trkpt>
      <trkpt lat="44.48842" lon="6.02356">
        <ele>681.711914</ele>
        <time>2011-02-04T10:08:22Z</time>
      </trkpt>
      <trkpt lat="44.48812" lon="6.02351">
        <ele>678.828125</ele>
        <time>2011-02-04T10:08:25Z</time>
      </trkpt>
      <trkpt lat="44.48792" lon="6.02351">
        <ele>677.38623</ele>
        <time>2011-02-04T10:08:27Z</time>
      </trkpt>
      <trkpt lat="44.4869" lon="6.02371">
        <ele>673.060303</ele>
        <time>2011-02-04T10:08:38Z</time>
      </trkpt>
      <trkpt lat="44.48681" lon="6.02374">
        <ele>673.060303</ele>
        <time>2011-02-04T10:08:39Z</time>
      </trkpt>
      <trkpt lat="44.48665" lon="6.02379">
        <ele>672.57959</ele>
        <time>2011-02-04T10:08:41Z</time>
      </trkpt>
      <trkpt lat="44.48633" lon="6.02413">
        <ele>670.17627</ele>
        <time>2011-02-04T10:08:46Z</time>
      </trkpt>
      <trkpt lat="44.48623" lon="6.02435">
        <ele>668.734375</ele>
        <time>2011-02-04T10:08:48Z</time>
      </trkpt>
      <trkpt lat="44.48612" lon="6.02458">
        <ele>666.330811</ele>
        <time>2011-02-04T10:08:50Z</time>
      </trkpt>
      <trkpt lat="44.48579" lon="6.02513">
        <ele>663.92749</ele>
        <time>2011-02-04T10:08:55Z</time>
      </trkpt>
      <trkpt lat="44.48564" lon="6.02531">
        <ele>661.524414</ele>
        <time>2011-02-04T10:08:57Z</time>
      </trkpt>
      <trkpt lat="44.48542" lon="6.02559">
        <ele>658.159912</ele>
        <time>2011-02-04T10:09:00Z</time>
      </trkpt>
      <trkpt lat="44.48502" lon="6.02604">
        <ele>657.679199</ele>
        <time>2011-02-04T10:09:06Z</time>
      </trkpt>
      <trkpt lat="44.48486" lon="6.02628">
        <ele>655.756592</ele>
        <time>2011-02-04T10:09:09Z</time>
      </trkpt>
      <trkpt lat="44.48477" lon="6.02648">
        <ele>653.833984</ele>
        <time>2011-02-04T10:09:11Z</time>
      </trkpt>
      <trkpt lat="44.48468" lon="6.0267">
        <ele>652.391846</ele>
        <time>2011-02-04T10:09:13Z</time>
      </trkpt>
      <trkpt lat="44.48461" lon="6.02692">
        <ele>649.507813</ele>
        <time>2011-02-04T10:09:15Z</time>
      </trkpt>
      <trkpt lat="44.48457" lon="6.02715">
        <ele>647.585205</ele>
        <time>2011-02-04T10:09:17Z</time>
      </trkpt>
      <trkpt lat="44.48439" lon="6.02752">
        <ele>646.624023</ele>
        <time>2011-02-04T10:09:21Z</time>
      </trkpt>
      <trkpt lat="44.48428" lon="6.02768">
        <ele>645.662598</ele>
        <time>2011-02-04T10:09:23Z</time>
      </trkpt>
      <trkpt lat="44.48408" lon="6.02787">
        <ele>642.778809</ele>
        <time>2011-02-04T10:09:26Z</time>
      </trkpt>
      <trkpt lat="44.48387" lon="6.02802">
        <ele>640.855957</ele>
        <time>2011-02-04T10:09:29Z</time>
      </trkpt>
      <trkpt lat="44.48372" lon="6.02806">
        <ele>639.894775</ele>
        <time>2011-02-04T10:09:31Z</time>
      </trkpt>
      <trkpt lat="44.48351" lon="6.0281">
        <ele>639.894775</ele>
        <time>2011-02-04T10:09:34Z</time>
      </trkpt>
      <trkpt lat="44.4834" lon="6.02817">
        <ele>638.452881</ele>
        <time>2011-02-04T10:09:36Z</time>
      </trkpt>
      <trkpt lat="44.48323" lon="6.0284">
        <ele>636.049561</ele>
        <time>2011-02-04T10:09:39Z</time>
      </trkpt>
      <trkpt lat="44.48274" lon="6.02965">
        <ele>636.049561</ele>
        <time>2011-02-04T10:09:53Z</time>
      </trkpt>
      <trkpt lat="44.4826" lon="6.03022">
        <ele>638.933594</ele>
        <time>2011-02-04T10:10:02Z</time>
      </trkpt>
      <trkpt lat="44.48239" lon="6.03076">
        <ele>640.855957</ele>
        <time>2011-02-04T10:10:16Z</time>
      </trkpt>
      <trkpt lat="44.48237" lon="6.0308">
        <ele>641.33667</ele>
        <time>2011-02-04T10:10:17Z</time>
      </trkpt>
      <trkpt lat="44.48225" lon="6.03094">
        <ele>641.817383</ele>
        <time>2011-02-04T10:10:23Z</time>
      </trkpt>
      <trkpt lat="44.48175" lon="6.03108">
        <ele>640.855957</ele>
        <time>2011-02-04T10:10:37Z</time>
      </trkpt>
      <trkpt lat="44.48152" lon="6.03116">
        <ele>637.972168</ele>
        <time>2011-02-04T10:10:41Z</time>
      </trkpt>
      <trkpt lat="44.48097" lon="6.03141">
        <ele>634.126709</ele>
        <time>2011-02-04T10:10:50Z</time>
      </trkpt>
      <trkpt lat="44.48091" lon="6.03143">
        <ele>634.126709</ele>
        <time>2011-02-04T10:10:51Z</time>
      </trkpt>
      <trkpt lat="44.4804" lon="6.03164">
        <ele>633.165283</ele>
        <time>2011-02-04T10:11:00Z</time>
      </trkpt>
      <trkpt lat="44.48012" lon="6.0317">
        <ele>631.723389</ele>
        <time>2011-02-04T10:11:04Z</time>
      </trkpt>
      <trkpt lat="44.47984" lon="6.03197">
        <ele>630.281494</ele>
        <time>2011-02-04T10:11:09Z</time>
      </trkpt>
      <trkpt lat="44.47965" lon="6.03234">
        <ele>631.24292</ele>
        <time>2011-02-04T10:11:14Z</time>
      </trkpt>
      <trkpt lat="44.47954" lon="6.03255">
        <ele>631.24292</ele>
        <time>2011-02-04T10:11:17Z</time>
      </trkpt>
      <trkpt lat="44.47926" lon="6.03265">
        <ele>633.165283</ele>
        <time>2011-02-04T10:11:23Z</time>
      </trkpt>
      <trkpt lat="44.4787" lon="6.03262">
        <ele>636.530273</ele>
        <time>2011-02-04T10:11:40Z</time>
      </trkpt>
      <trkpt lat="44.47809" lon="6.03261">
        <ele>634.126709</ele>
        <time>2011-02-04T10:11:57Z</time>
      </trkpt>
      <trkpt lat="44.47803" lon="6.03261">
        <ele>634.126709</ele>
        <time>2011-02-04T10:11:58Z</time>
      </trkpt>
      <trkpt lat="44.47769" lon="6.03262">
        <ele>630.762207</ele>
        <time>2011-02-04T10:12:03Z</time>
      </trkpt>
      <trkpt lat="44.47753" lon="6.03263">
        <ele>628.358887</ele>
        <time>2011-02-04T10:12:05Z</time>
      </trkpt>
      <trkpt lat="44.47736" lon="6.03263">
        <ele>627.397705</ele>
        <time>2011-02-04T10:12:07Z</time>
      </trkpt>
      <trkpt lat="44.47723" lon="6.03263">
        <ele>625.955566</ele>
        <time>2011-02-04T10:12:09Z</time>
      </trkpt>
      <trkpt lat="44.47692" lon="6.03254">
        <ele>624.032959</ele>
        <time>2011-02-04T10:12:12Z</time>
      </trkpt>
      <trkpt lat="44.47584" lon="6.03239">
        <ele>623.071777</ele>
        <time>2011-02-04T10:12:25Z</time>
      </trkpt>
      <trkpt lat="44.47533" lon="6.03236">
        <ele>622.591064</ele>
        <time>2011-02-04T10:12:32Z</time>
      </trkpt>
      <trkpt lat="44.47493" lon="6.03259">
        <ele>622.110352</ele>
        <time>2011-02-04T10:12:39Z</time>
      </trkpt>
      <trkpt lat="44.47421" lon="6.03302">
        <ele>622.110352</ele>
        <time>2011-02-04T10:12:53Z</time>
      </trkpt>
      <trkpt lat="44.47353" lon="6.03333">
        <ele>622.591064</ele>
        <time>2011-02-04T10:13:08Z</time>
      </trkpt>
      <trkpt lat="44.47306" lon="6.03354">
        <ele>621.14917</ele>
        <time>2011-02-04T10:13:18Z</time>
      </trkpt>
      <trkpt lat="44.47293" lon="6.03369">
        <ele>622.110352</ele>
        <time>2011-02-04T10:13:22Z</time>
      </trkpt>
      <trkpt lat="44.47285" lon="6.03397">
        <ele>621.629639</ele>
        <time>2011-02-04T10:13:33Z</time>
      </trkpt>
      <trkpt lat="44.47285" lon="6.03397">
        <ele>623.071777</ele>
        <time>2011-02-04T10:13:51Z</time>
      </trkpt>
      <trkpt lat="44.47285" lon="6.03397">
        <ele>623.071777</ele>
        <time>2011-02-04T10:14:03Z</time>
      </trkpt>
      <trkpt lat="44.47285" lon="6.03397">
        <ele>623.071777</ele>
        <time>2011-02-04T10:14:13Z</time>
      </trkpt>
      <trkpt lat="44.47258" lon="6.03391">
        <ele>621.14917</ele>
        <time>2011-02-04T10:14:22Z</time>
      </trkpt>
      <trkpt lat="44.47207" lon="6.03383">
        <ele>619.226318</ele>
        <time>2011-02-04T10:14:32Z</time>
      </trkpt>
      <trkpt lat="44.47165" lon="6.03381">
        <ele>617.303711</ele>
        <time>2011-02-04T10:14:39Z</time>
      </trkpt>
      <trkpt lat="44.47052" lon="6.03364">
        <ele>614.900391</ele>
        <time>2011-02-04T10:14:57Z</time>
      </trkpt>
      <trkpt lat="44.46936" lon="6.03374">
        <ele>615.861816</ele>
        <time>2011-02-04T10:15:16Z</time>
      </trkpt>
      <trkpt lat="44.46854" lon="6.03388">
        <ele>616.342285</ele>
        <time>2011-02-04T10:15:34Z</time>
      </trkpt>
      <trkpt lat="44.46821" lon="6.03393">
        <ele>617.303711</ele>
        <time>2011-02-04T10:15:42Z</time>
      </trkpt>
      <trkpt lat="44.46719" lon="6.03409">
        <ele>619.226318</ele>
        <time>2011-02-04T10:16:07Z</time>
      </trkpt>
      <trkpt lat="44.46587" lon="6.0343">
        <ele>617.78418</ele>
        <time>2011-02-04T10:16:34Z</time>
      </trkpt>
      <trkpt lat="44.46462" lon="6.03443">
        <ele>615.381104</ele>
        <time>2011-02-04T10:16:55Z</time>
      </trkpt>
      <trkpt lat="44.46382" lon="6.03434">
        <ele>615.381104</ele>
        <time>2011-02-04T10:17:11Z</time>
      </trkpt>
      <trkpt lat="44.46259" lon="6.03419">
        <ele>614.900391</ele>
        <time>2011-02-04T10:17:35Z</time>
      </trkpt>
      <trkpt lat="44.46168" lon="6.03408">
        <ele>611.535889</ele>
        <time>2011-02-04T10:17:50Z</time>
      </trkpt>
      <trkpt lat="44.46148" lon="6.03405">
        <ele>610.09375</ele>
        <time>2011-02-04T10:17:53Z</time>
      </trkpt>
      <trkpt lat="44.4609" lon="6.03399">
        <ele>607.209961</ele>
        <time>2011-02-04T10:18:01Z</time>
      </trkpt>
      <trkpt lat="44.46075" lon="6.03396">
        <ele>606.248535</ele>
        <time>2011-02-04T10:18:03Z</time>
      </trkpt>
      <trkpt lat="44.46044" lon="6.03393">
        <ele>604.326172</ele>
        <time>2011-02-04T10:18:07Z</time>
      </trkpt>
      <trkpt lat="44.46001" lon="6.03386">
        <ele>601.922607</ele>
        <time>2011-02-04T10:18:12Z</time>
      </trkpt>
      <trkpt lat="44.45984" lon="6.03384">
        <ele>600</ele>
        <time>2011-02-04T10:18:14Z</time>
      </trkpt>
      <trkpt lat="44.45833" lon="6.03365">
        <ele>598.077393</ele>
        <time>2011-02-04T10:18:33Z</time>
      </trkpt>
      <trkpt lat="44.45728" lon="6.03351">
        <ele>598.557861</ele>
        <time>2011-02-04T10:18:50Z</time>
      </trkpt>
      <trkpt lat="44.4571" lon="6.03333">
        <ele>598.557861</ele>
        <time>2011-02-04T10:18:55Z</time>
      </trkpt>
      <trkpt lat="44.45708" lon="6.03321">
        <ele>598.557861</ele>
        <time>2011-02-04T10:18:57Z</time>
      </trkpt>
      <trkpt lat="44.45694" lon="6.03236">
        <ele>600.480713</ele>
        <time>2011-02-04T10:19:14Z</time>
      </trkpt>
      <trkpt lat="44.45693" lon="6.0322">
        <ele>600.480713</ele>
        <time>2011-02-04T10:19:17Z</time>
      </trkpt>
      <trkpt lat="44.45682" lon="6.03191">
        <ele>599.519287</ele>
        <time>2011-02-04T10:19:22Z</time>
      </trkpt>
      <trkpt lat="44.45678" lon="6.03177">
        <ele>598.557861</ele>
        <time>2011-02-04T10:19:24Z</time>
      </trkpt>
      <trkpt lat="44.45628" lon="6.03061">
        <ele>596.635498</ele>
        <time>2011-02-04T10:19:41Z</time>
      </trkpt>
      <trkpt lat="44.45567" lon="6.0297">
        <ele>596.154785</ele>
        <time>2011-02-04T10:19:59Z</time>
      </trkpt>
      <trkpt lat="44.4556" lon="6.0296">
        <ele>596.154785</ele>
        <time>2011-02-04T10:20:01Z</time>
      </trkpt>
      <trkpt lat="44.45494" lon="6.0283">
        <ele>599.038574</ele>
        <time>2011-02-04T10:20:25Z</time>
      </trkpt>
      <trkpt lat="44.45476" lon="6.02801">
        <ele>600</ele>
        <time>2011-02-04T10:20:31Z</time>
      </trkpt>
      <trkpt lat="44.45471" lon="6.02791">
        <ele>599.519287</ele>
        <time>2011-02-04T10:20:33Z</time>
      </trkpt>
      <trkpt lat="44.4546" lon="6.02773">
        <ele>600.961182</ele>
        <time>2011-02-04T10:20:37Z</time>
      </trkpt>
      <trkpt lat="44.45453" lon="6.0276">
        <ele>599.038574</ele>
        <time>2011-02-04T10:20:40Z</time>
      </trkpt>
      <trkpt lat="44.45441" lon="6.02737">
        <ele>600.480713</ele>
        <time>2011-02-04T10:20:45Z</time>
      </trkpt>
      <trkpt lat="44.45382" lon="6.02638">
        <ele>602.403076</ele>
        <time>2011-02-04T10:21:08Z</time>
      </trkpt>
      <trkpt lat="44.45356" lon="6.02554">
        <ele>603.845215</ele>
        <time>2011-02-04T10:21:26Z</time>
      </trkpt>
      <trkpt lat="44.45343" lon="6.02462">
        <ele>604.326172</ele>
        <time>2011-02-04T10:21:44Z</time>
      </trkpt>
      <trkpt lat="44.45361" lon="6.02376">
        <ele>605.768066</ele>
        <time>2011-02-04T10:22:02Z</time>
      </trkpt>
      <trkpt lat="44.45369" lon="6.02301">
        <ele>607.690674</ele>
        <time>2011-02-04T10:22:19Z</time>
      </trkpt>
      <trkpt lat="44.45382" lon="6.02242">
        <ele>610.574463</ele>
        <time>2011-02-04T10:22:37Z</time>
      </trkpt>
      <trkpt lat="44.45435" lon="6.02223">
        <ele>612.016602</ele>
        <time>2011-02-04T10:22:58Z</time>
      </trkpt>
      <trkpt lat="44.45438" lon="6.02176">
        <ele>613.938965</ele>
        <time>2011-02-04T10:23:12Z</time>
      </trkpt>
      <trkpt lat="44.45422" lon="6.02092">
        <ele>613.938965</ele>
        <time>2011-02-04T10:23:31Z</time>
      </trkpt>
      <trkpt lat="44.45403" lon="6.0198">
        <ele>613.458496</ele>
        <time>2011-02-04T10:23:52Z</time>
      </trkpt>
      <trkpt lat="44.45402" lon="6.01976">
        <ele>613.458496</ele>
        <time>2011-02-04T10:23:53Z</time>
      </trkpt>
      <trkpt lat="44.45398" lon="6.01951">
        <ele>614.900391</ele>
        <time>2011-02-04T10:24:00Z</time>
      </trkpt>
      <trkpt lat="44.45385" lon="6.01885">
        <ele>616.822998</ele>
        <time>2011-02-04T10:24:20Z</time>
      </trkpt>
      <trkpt lat="44.45375" lon="6.01833">
        <ele>620.187744</ele>
        <time>2011-02-04T10:24:38Z</time>
      </trkpt>
      <trkpt lat="44.45375" lon="6.0183">
        <ele>620.187744</ele>
        <time>2011-02-04T10:24:39Z</time>
      </trkpt>
      <trkpt lat="44.45367" lon="6.01789">
        <ele>623.071777</ele>
        <time>2011-02-04T10:24:53Z</time>
      </trkpt>
      <trkpt lat="44.45357" lon="6.01728">
        <ele>625.955566</ele>
        <time>2011-02-04T10:25:16Z</time>
      </trkpt>
      <trkpt lat="44.45355" lon="6.01692">
        <ele>628.358887</ele>
        <time>2011-02-04T10:25:29Z</time>
      </trkpt>
      <trkpt lat="44.45367" lon="6.01647">
        <ele>628.8396</ele>
        <time>2011-02-04T10:25:45Z</time>
      </trkpt>
      <trkpt lat="44.45371" lon="6.01626">
        <ele>630.281494</ele>
        <time>2011-02-04T10:25:52Z</time>
      </trkpt>
      <trkpt lat="44.45383" lon="6.01585">
        <ele>632.684814</ele>
        <time>2011-02-04T10:26:07Z</time>
      </trkpt>
      <trkpt lat="44.45406" lon="6.0154">
        <ele>634.126709</ele>
        <time>2011-02-04T10:26:27Z</time>
      </trkpt>
      <trkpt lat="44.4541" lon="6.01534">
        <ele>636.049561</ele>
        <time>2011-02-04T10:26:30Z</time>
      </trkpt>
      <trkpt lat="44.45438" lon="6.01499">
        <ele>638.452881</ele>
        <time>2011-02-04T10:26:50Z</time>
      </trkpt>
      <trkpt lat="44.45471" lon="6.01475">
        <ele>641.33667</ele>
        <time>2011-02-04T10:27:09Z</time>
      </trkpt>
      <trkpt lat="44.45508" lon="6.0145">
        <ele>644.701172</ele>
        <time>2011-02-04T10:27:30Z</time>
      </trkpt>
      <trkpt lat="44.45548" lon="6.01414">
        <ele>646.143311</ele>
        <time>2011-02-04T10:27:54Z</time>
      </trkpt>
      <trkpt lat="44.45572" lon="6.01377">
        <ele>651.43042</ele>
        <time>2011-02-04T10:28:14Z</time>
      </trkpt>
      <trkpt lat="44.45574" lon="6.01376">
        <ele>651.43042</ele>
        <time>2011-02-04T10:28:15Z</time>
      </trkpt>
      <trkpt lat="44.45576" lon="6.01372">
        <ele>649.988525</ele>
        <time>2011-02-04T10:28:17Z</time>
      </trkpt>
      <trkpt lat="44.45598" lon="6.01335">
        <ele>653.833984</ele>
        <time>2011-02-04T10:28:37Z</time>
      </trkpt>
      <trkpt lat="44.45603" lon="6.01325">
        <ele>653.833984</ele>
        <time>2011-02-04T10:28:42Z</time>
      </trkpt>
      <trkpt lat="44.45603" lon="6.01319">
        <ele>653.833984</ele>
        <time>2011-02-04T10:28:43Z</time>
      </trkpt>
      <trkpt lat="44.45601" lon="6.01314">
        <ele>655.275879</ele>
        <time>2011-02-04T10:28:48Z</time>
      </trkpt>
      <trkpt lat="44.45596" lon="6.01311">
        <ele>655.275879</ele>
        <time>2011-02-04T10:28:51Z</time>
      </trkpt>
      <trkpt lat="44.45575" lon="6.01314">
        <ele>657.679199</ele>
        <time>2011-02-04T10:29:04Z</time>
      </trkpt>
      <trkpt lat="44.4555" lon="6.0131">
        <ele>660.082275</ele>
        <time>2011-02-04T10:29:17Z</time>
      </trkpt>
      <trkpt lat="44.45519" lon="6.0131">
        <ele>662.005127</ele>
        <time>2011-02-04T10:29:35Z</time>
      </trkpt>
      <trkpt lat="44.45503" lon="6.01308">
        <ele>663.92749</ele>
        <time>2011-02-04T10:29:45Z</time>
      </trkpt>
      <trkpt lat="44.45493" lon="6.01309">
        <ele>664.408203</ele>
        <time>2011-02-04T10:29:50Z</time>
      </trkpt>
      <trkpt lat="44.45488" lon="6.01306">
        <ele>665.850342</ele>
        <time>2011-02-04T10:30:04Z</time>
      </trkpt>
      <trkpt lat="44.45488" lon="6.01305">
        <ele>665.850342</ele>
        <time>2011-02-04T10:30:30Z</time>
      </trkpt>
      <trkpt lat="44.45486" lon="6.01307">
        <ele>667.292236</ele>
        <time>2011-02-04T10:39:56Z</time>
      </trkpt>
      <trkpt lat="44.45462" lon="6.01315">
        <ele>669.215088</ele>
        <time>2011-02-04T10:40:09Z</time>
      </trkpt>
      <trkpt lat="44.45458" lon="6.01296">
        <ele>671.137695</ele>
        <time>2011-02-04T10:40:18Z</time>
      </trkpt>
      <trkpt lat="44.45463" lon="6.0129">
        <ele>671.618164</ele>
        <time>2011-02-04T10:40:21Z</time>
      </trkpt>
      <trkpt lat="44.45466" lon="6.01288">
        <ele>672.098877</ele>
        <time>2011-02-04T10:40:23Z</time>
      </trkpt>
      <trkpt lat="44.4548" lon="6.01275">
        <ele>673.060303</ele>
        <time>2011-02-04T10:40:33Z</time>
      </trkpt>
      <trkpt lat="44.45523" lon="6.01248">
        <ele>676.905518</ele>
        <time>2011-02-04T10:40:56Z</time>
      </trkpt>
      <trkpt lat="44.45541" lon="6.01236">
        <ele>678.347412</ele>
        <time>2011-02-04T10:41:06Z</time>
      </trkpt>
      <trkpt lat="44.45552" lon="6.01228">
        <ele>679.308594</ele>
        <time>2011-02-04T10:41:12Z</time>
      </trkpt>
      <trkpt lat="44.45577" lon="6.01209">
        <ele>682.192627</ele>
        <time>2011-02-04T10:41:27Z</time>
      </trkpt>
      <trkpt lat="44.45586" lon="6.01189">
        <ele>684.115479</ele>
        <time>2011-02-04T10:41:36Z</time>
      </trkpt>
      <trkpt lat="44.45597" lon="6.01147">
        <ele>686.518799</ele>
        <time>2011-02-04T10:41:54Z</time>
      </trkpt>
      <trkpt lat="44.45608" lon="6.01114">
        <ele>688.441406</ele>
        <time>2011-02-04T10:42:08Z</time>
      </trkpt>
      <trkpt lat="44.45583" lon="6.01102">
        <ele>691.325195</ele>
        <time>2011-02-04T10:42:23Z</time>
      </trkpt>
      <trkpt lat="44.45548" lon="6.0109">
        <ele>694.209229</ele>
        <time>2011-02-04T10:42:43Z</time>
      </trkpt>
      <trkpt lat="44.45521" lon="6.0108">
        <ele>697.093018</ele>
        <time>2011-02-04T10:43:00Z</time>
      </trkpt>
      <trkpt lat="44.45499" lon="6.01062">
        <ele>699.496338</ele>
        <time>2011-02-04T10:43:14Z</time>
      </trkpt>
      <trkpt lat="44.45499" lon="6.01021">
        <ele>702.380371</ele>
        <time>2011-02-04T10:43:31Z</time>
      </trkpt>
      <trkpt lat="44.45519" lon="6.00995">
        <ele>705.264404</ele>
        <time>2011-02-04T10:43:46Z</time>
      </trkpt>
      <trkpt lat="44.45551" lon="6.00961">
        <ele>708.148438</ele>
        <time>2011-02-04T10:44:07Z</time>
      </trkpt>
      <trkpt lat="44.45582" lon="6.00921">
        <ele>711.032227</ele>
        <time>2011-02-04T10:44:29Z</time>
      </trkpt>
      <trkpt lat="44.45611" lon="6.00903">
        <ele>712.954834</ele>
        <time>2011-02-04T10:44:44Z</time>
      </trkpt>
      <trkpt lat="44.45616" lon="6.00896">
        <ele>713.435547</ele>
        <time>2011-02-04T10:44:48Z</time>
      </trkpt>
      <trkpt lat="44.45633" lon="6.00851">
        <ele>715.838867</ele>
        <time>2011-02-04T10:45:07Z</time>
      </trkpt>
      <trkpt lat="44.45647" lon="6.00828">
        <ele>718.242188</ele>
        <time>2011-02-04T10:45:18Z</time>
      </trkpt>
      <trkpt lat="44.45685" lon="6.00818">
        <ele>721.606689</ele>
        <time>2011-02-04T10:45:38Z</time>
      </trkpt>
      <trkpt lat="44.45696" lon="6.00817">
        <ele>722.087402</ele>
        <time>2011-02-04T10:45:43Z</time>
      </trkpt>
      <trkpt lat="44.4573" lon="6.00821">
        <ele>724.490723</ele>
        <time>2011-02-04T10:46:02Z</time>
      </trkpt>
      <trkpt lat="44.45761" lon="6.00831">
        <ele>725.932617</ele>
        <time>2011-02-04T10:46:17Z</time>
      </trkpt>
      <trkpt lat="44.45762" lon="6.00818">
        <ele>726.894043</ele>
        <time>2011-02-04T10:46:22Z</time>
      </trkpt>
      <trkpt lat="44.45736" lon="6.00809">
        <ele>728.335938</ele>
        <time>2011-02-04T10:46:35Z</time>
      </trkpt>
      <trkpt lat="44.45699" lon="6.00791">
        <ele>730.739258</ele>
        <time>2011-02-04T10:46:54Z</time>
      </trkpt>
      <trkpt lat="44.45656" lon="6.0077">
        <ele>733.142578</ele>
        <time>2011-02-04T10:47:16Z</time>
      </trkpt>
      <trkpt lat="44.45612" lon="6.00747">
        <ele>736.507324</ele>
        <time>2011-02-04T10:47:40Z</time>
      </trkpt>
      <trkpt lat="44.45601" lon="6.00712">
        <ele>738.910645</ele>
        <time>2011-02-04T10:47:56Z</time>
      </trkpt>
      <trkpt lat="44.45602" lon="6.00707">
        <ele>738.910645</ele>
        <time>2011-02-04T10:47:58Z</time>
      </trkpt>
      <trkpt lat="44.45627" lon="6.00671">
        <ele>742.755859</ele>
        <time>2011-02-04T10:48:18Z</time>
      </trkpt>
      <trkpt lat="44.45651" lon="6.0065">
        <ele>746.120361</ele>
        <time>2011-02-04T10:48:35Z</time>
      </trkpt>
      <trkpt lat="44.45666" lon="6.00635">
        <ele>749.004395</ele>
        <time>2011-02-04T10:48:47Z</time>
      </trkpt>
      <trkpt lat="44.45668" lon="6.00635">
        <ele>749.004395</ele>
        <time>2011-02-04T10:48:48Z</time>
      </trkpt>
      <trkpt lat="44.45681" lon="6.00664">
        <ele>752.368896</ele>
        <time>2011-02-04T10:49:04Z</time>
      </trkpt>
      <trkpt lat="44.457" lon="6.00698">
        <ele>755.25293</ele>
        <time>2011-02-04T10:49:22Z</time>
      </trkpt>
      <trkpt lat="44.45728" lon="6.00692">
        <ele>758.617432</ele>
        <time>2011-02-04T10:49:38Z</time>
      </trkpt>
      <trkpt lat="44.45748" lon="6.00667">
        <ele>761.501465</ele>
        <time>2011-02-04T10:49:55Z</time>
      </trkpt>
      <trkpt lat="44.45766" lon="6.00647">
        <ele>763.904541</ele>
        <time>2011-02-04T10:50:09Z</time>
      </trkpt>
      <trkpt lat="44.45769" lon="6.00644">
        <ele>763.904541</ele>
        <time>2011-02-04T10:50:11Z</time>
      </trkpt>
      <trkpt lat="44.45775" lon="6.00642">
        <ele>764.866211</ele>
        <time>2011-02-04T10:50:15Z</time>
      </trkpt>
      <trkpt lat="44.45785" lon="6.00631">
        <ele>766.308105</ele>
        <time>2011-02-04T10:50:23Z</time>
      </trkpt>
      <trkpt lat="44.45779" lon="6.00615">
        <ele>769.192139</ele>
        <time>2011-02-04T10:50:32Z</time>
      </trkpt>
      <trkpt lat="44.45774" lon="6.00611">
        <ele>769.672852</ele>
        <time>2011-02-04T10:50:35Z</time>
      </trkpt>
      <trkpt lat="44.4577" lon="6.0061">
        <ele>770.15332</ele>
        <time>2011-02-04T10:50:38Z</time>
      </trkpt>
      <trkpt lat="44.4574" lon="6.00582">
        <ele>773.518066</ele>
        <time>2011-02-04T10:51:00Z</time>
      </trkpt>
      <trkpt lat="44.45734" lon="6.00576">
        <ele>773.998535</ele>
        <time>2011-02-04T10:51:05Z</time>
      </trkpt>
      <trkpt lat="44.45729" lon="6.00548">
        <ele>776.882568</ele>
        <time>2011-02-04T10:51:21Z</time>
      </trkpt>
      <trkpt lat="44.45754" lon="6.00536">
        <ele>780.247314</ele>
        <time>2011-02-04T10:51:38Z</time>
      </trkpt>
      <trkpt lat="44.45777" lon="6.00515">
        <ele>783.611816</ele>
        <time>2011-02-04T10:51:55Z</time>
      </trkpt>
      <trkpt lat="44.45807" lon="6.00483">
        <ele>786.49585</ele>
        <time>2011-02-04T10:52:18Z</time>
      </trkpt>
      <trkpt lat="44.4582" lon="6.00468">
        <ele>787.937744</ele>
        <time>2011-02-04T10:52:28Z</time>
      </trkpt>
      <trkpt lat="44.45841" lon="6.00429">
        <ele>790.821533</ele>
        <time>2011-02-04T10:52:48Z</time>
      </trkpt>
      <trkpt lat="44.45837" lon="6.00417">
        <ele>792.263672</ele>
        <time>2011-02-04T10:52:54Z</time>
      </trkpt>
      <trkpt lat="44.45819" lon="6.00407">
        <ele>794.186279</ele>
        <time>2011-02-04T10:53:06Z</time>
      </trkpt>
      <trkpt lat="44.45809" lon="6.00402">
        <ele>795.628174</ele>
        <time>2011-02-04T10:53:13Z</time>
      </trkpt>
      <trkpt lat="44.45803" lon="6.00399">
        <ele>796.589844</ele>
        <time>2011-02-04T10:53:17Z</time>
      </trkpt>
      <trkpt lat="44.45787" lon="6.00393">
        <ele>798.031738</ele>
        <time>2011-02-04T10:53:28Z</time>
      </trkpt>
      <trkpt lat="44.45779" lon="6.00391">
        <ele>798.99292</ele>
        <time>2011-02-04T10:53:34Z</time>
      </trkpt>
      <trkpt lat="44.4577" lon="6.00363">
        <ele>801.39624</ele>
        <time>2011-02-04T10:53:49Z</time>
      </trkpt>
      <trkpt lat="44.45774" lon="6.00339">
        <ele>804.760742</ele>
        <time>2011-02-04T10:54:00Z</time>
      </trkpt>
      <trkpt lat="44.45784" lon="6.00317">
        <ele>807.644775</ele>
        <time>2011-02-04T10:54:12Z</time>
      </trkpt>
      <trkpt lat="44.45802" lon="6.00317">
        <ele>808.605957</ele>
        <time>2011-02-04T10:54:24Z</time>
      </trkpt>
      <trkpt lat="44.45819" lon="6.00318">
        <ele>809.08667</ele>
        <time>2011-02-04T10:54:38Z</time>
      </trkpt>
      <trkpt lat="44.45819" lon="6.00318">
        <ele>808.125488</ele>
        <time>2011-02-04T10:55:46Z</time>
      </trkpt>
      <trkpt lat="44.45819" lon="6.00318">
        <ele>810.047852</ele>
        <time>2011-02-04T10:55:48Z</time>
      </trkpt>
      <trkpt lat="44.45819" lon="6.00317">
        <ele>809.08667</ele>
        <time>2011-02-04T10:56:20Z</time>
      </trkpt>
      <trkpt lat="44.45846" lon="6.00286">
        <ele>808.605957</ele>
        <time>2011-02-04T10:56:34Z</time>
      </trkpt>
      <trkpt lat="44.45889" lon="6.00233">
        <ele>807.164063</ele>
        <time>2011-02-04T10:56:50Z</time>
      </trkpt>
      <trkpt lat="44.45939" lon="6.00191">
        <ele>806.202637</ele>
        <time>2011-02-04T10:57:06Z</time>
      </trkpt>
      <trkpt lat="44.45946" lon="6.00186">
        <ele>806.68335</ele>
        <time>2011-02-04T10:57:08Z</time>
      </trkpt>
      <trkpt lat="44.4598" lon="6.00129">
        <ele>808.125488</ele>
        <time>2011-02-04T10:57:24Z</time>
      </trkpt>
      <trkpt lat="44.45985" lon="6.00117">
        <ele>809.08667</ele>
        <time>2011-02-04T10:57:29Z</time>
      </trkpt>
      <trkpt lat="44.46004" lon="6.0008">
        <ele>811.970703</ele>
        <time>2011-02-04T10:57:46Z</time>
      </trkpt>
      <trkpt lat="44.46005" lon="6.00078">
        <ele>811.970703</ele>
        <time>2011-02-04T10:57:47Z</time>
      </trkpt>
      <trkpt lat="44.46022" lon="6.00046">
        <ele>814.854736</ele>
        <time>2011-02-04T10:58:03Z</time>
      </trkpt>
      <trkpt lat="44.46038" lon="6.00016">
        <ele>818.219238</ele>
        <time>2011-02-04T10:58:18Z</time>
      </trkpt>
      <trkpt lat="44.46058" lon="5.99981">
        <ele>820.622559</ele>
        <time>2011-02-04T10:58:37Z</time>
      </trkpt>
      <trkpt lat="44.46074" lon="5.99947">
        <ele>823.987061</ele>
        <time>2011-02-04T10:58:55Z</time>
      </trkpt>
      <trkpt lat="44.46079" lon="5.99936">
        <ele>825.909668</ele>
        <time>2011-02-04T10:59:01Z</time>
      </trkpt>
      <trkpt lat="44.46081" lon="5.99933">
        <ele>824.948486</ele>
        <time>2011-02-04T10:59:03Z</time>
      </trkpt>
      <trkpt lat="44.46082" lon="5.99931">
        <ele>825.909668</ele>
        <time>2011-02-04T10:59:04Z</time>
      </trkpt>
      <trkpt lat="44.46101" lon="5.99906">
        <ele>828.313232</ele>
        <time>2011-02-04T10:59:19Z</time>
      </trkpt>
      <trkpt lat="44.46113" lon="5.99892">
        <ele>830.716553</ele>
        <time>2011-02-04T10:59:30Z</time>
      </trkpt>
      <trkpt lat="44.46119" lon="5.99888">
        <ele>830.716553</ele>
        <time>2011-02-04T10:59:34Z</time>
      </trkpt>
      <trkpt lat="44.46122" lon="5.99885">
        <ele>832.158447</ele>
        <time>2011-02-04T10:59:36Z</time>
      </trkpt>
      <trkpt lat="44.46124" lon="5.99882">
        <ele>831.197266</ele>
        <time>2011-02-04T10:59:38Z</time>
      </trkpt>
      <trkpt lat="44.46149" lon="5.99859">
        <ele>834.561768</ele>
        <time>2011-02-04T10:59:56Z</time>
      </trkpt>
      <trkpt lat="44.46164" lon="5.99845">
        <ele>836.484375</ele>
        <time>2011-02-04T11:00:06Z</time>
      </trkpt>
      <trkpt lat="44.46183" lon="5.99822">
        <ele>839.368164</ele>
        <time>2011-02-04T11:00:22Z</time>
      </trkpt>
      <trkpt lat="44.46202" lon="5.99799">
        <ele>842.73291</ele>
        <time>2011-02-04T11:00:39Z</time>
      </trkpt>
      <trkpt lat="44.4623" lon="5.99774">
        <ele>846.097656</ele>
        <time>2011-02-04T11:01:02Z</time>
      </trkpt>
      <trkpt lat="44.46239" lon="5.9976">
        <ele>847.058838</ele>
        <time>2011-02-04T11:01:10Z</time>
      </trkpt>
      <trkpt lat="44.46228" lon="5.99746">
        <ele>848.500732</ele>
        <time>2011-02-04T11:01:19Z</time>
      </trkpt>
      <trkpt lat="44.46195" lon="5.99746">
        <ele>850.423584</ele>
        <time>2011-02-04T11:01:38Z</time>
      </trkpt>
      <trkpt lat="44.46192" lon="5.99748">
        <ele>850.904053</ele>
        <time>2011-02-04T11:01:40Z</time>
      </trkpt>
      <trkpt lat="44.46187" lon="5.99746">
        <ele>851.865479</ele>
        <time>2011-02-04T11:01:43Z</time>
      </trkpt>
      <trkpt lat="44.46145" lon="5.99743">
        <ele>853.788086</ele>
        <time>2011-02-04T11:02:06Z</time>
      </trkpt>
      <trkpt lat="44.46105" lon="5.9975">
        <ele>857.152588</ele>
        <time>2011-02-04T11:02:28Z</time>
      </trkpt>
      <trkpt lat="44.46065" lon="5.99755">
        <ele>860.036621</ele>
        <time>2011-02-04T11:02:50Z</time>
      </trkpt>
      <trkpt lat="44.46046" lon="5.9975">
        <ele>860.998047</ele>
        <time>2011-02-04T11:03:00Z</time>
      </trkpt>
      <trkpt lat="44.46032" lon="5.99738">
        <ele>861.959473</ele>
        <time>2011-02-04T11:03:08Z</time>
      </trkpt>
      <trkpt lat="44.46027" lon="5.99736">
        <ele>861.959473</ele>
        <time>2011-02-04T11:03:11Z</time>
      </trkpt>
      <trkpt lat="44.45991" lon="5.9972">
        <ele>864.362549</ele>
        <time>2011-02-04T11:03:32Z</time>
      </trkpt>
      <trkpt lat="44.45952" lon="5.99707">
        <ele>866.765869</ele>
        <time>2011-02-04T11:03:53Z</time>
      </trkpt>
      <trkpt lat="44.4592" lon="5.997">
        <ele>869.649902</ele>
        <time>2011-02-04T11:04:11Z</time>
      </trkpt>
      <trkpt lat="44.45873" lon="5.99706">
        <ele>873.014404</ele>
        <time>2011-02-04T11:04:37Z</time>
      </trkpt>
      <trkpt lat="44.45852" lon="5.99707">
        <ele>873.975586</ele>
        <time>2011-02-04T11:04:48Z</time>
      </trkpt>
      <trkpt lat="44.45816" lon="5.9973">
        <ele>876.37915</ele>
        <time>2011-02-04T11:05:09Z</time>
      </trkpt>
      <trkpt lat="44.45791" lon="5.99758">
        <ele>878.782471</ele>
        <time>2011-02-04T11:05:27Z</time>
      </trkpt>
      <trkpt lat="44.45778" lon="5.99758">
        <ele>879.743652</ele>
        <time>2011-02-04T11:05:35Z</time>
      </trkpt>
      <trkpt lat="44.45792" lon="5.99724">
        <ele>882.627686</ele>
        <time>2011-02-04T11:05:51Z</time>
      </trkpt>
      <trkpt lat="44.45798" lon="5.99709">
        <ele>883.588867</ele>
        <time>2011-02-04T11:05:58Z</time>
      </trkpt>
      <trkpt lat="44.45824" lon="5.99668">
        <ele>886.953369</ele>
        <time>2011-02-04T11:06:21Z</time>
      </trkpt>
      <trkpt lat="44.45854" lon="5.9964">
        <ele>889.356689</ele>
        <time>2011-02-04T11:06:41Z</time>
      </trkpt>
      <trkpt lat="44.45879" lon="5.99617">
        <ele>891.279297</ele>
        <time>2011-02-04T11:06:57Z</time>
      </trkpt>
      <trkpt lat="44.45911" lon="5.99588">
        <ele>893.682861</ele>
        <time>2011-02-04T11:07:17Z</time>
      </trkpt>
      <trkpt lat="44.45945" lon="5.99568">
        <ele>895.605469</ele>
        <time>2011-02-04T11:07:37Z</time>
      </trkpt>
      <trkpt lat="44.45977" lon="5.9955">
        <ele>896.566895</ele>
        <time>2011-02-04T11:07:56Z</time>
      </trkpt>
      <trkpt lat="44.45984" lon="5.99543">
        <ele>897.528076</ele>
        <time>2011-02-04T11:08:02Z</time>
      </trkpt>
      <trkpt lat="44.45977" lon="5.99498">
        <ele>899.931396</ele>
        <time>2011-02-04T11:08:21Z</time>
      </trkpt>
      <trkpt lat="44.4596" lon="5.99459">
        <ele>903.295898</ele>
        <time>2011-02-04T11:08:39Z</time>
      </trkpt>
      <trkpt lat="44.45957" lon="5.99453">
        <ele>903.295898</ele>
        <time>2011-02-04T11:08:42Z</time>
      </trkpt>
      <trkpt lat="44.45948" lon="5.99441">
        <ele>904.737793</ele>
        <time>2011-02-04T11:08:49Z</time>
      </trkpt>
      <trkpt lat="44.45935" lon="5.9943">
        <ele>906.6604</ele>
        <time>2011-02-04T11:08:58Z</time>
      </trkpt>
      <trkpt lat="44.45913" lon="5.99424">
        <ele>909.544678</ele>
        <time>2011-02-04T11:09:11Z</time>
      </trkpt>
      <trkpt lat="44.45884" lon="5.99415">
        <ele>912.90918</ele>
        <time>2011-02-04T11:09:30Z</time>
      </trkpt>
      <trkpt lat="44.45876" lon="5.99409">
        <ele>913.389893</ele>
        <time>2011-02-04T11:09:36Z</time>
      </trkpt>
      <trkpt lat="44.45851" lon="5.99394">
        <ele>917.235107</ele>
        <time>2011-02-04T11:09:53Z</time>
      </trkpt>
      <trkpt lat="44.45841" lon="5.99366">
        <ele>920.118896</ele>
        <time>2011-02-04T11:10:09Z</time>
      </trkpt>
      <trkpt lat="44.45844" lon="5.99338">
        <ele>922.041504</ele>
        <time>2011-02-04T11:10:21Z</time>
      </trkpt>
      <trkpt lat="44.45836" lon="5.99288">
        <ele>925.40625</ele>
        <time>2011-02-04T11:10:42Z</time>
      </trkpt>
      <trkpt lat="44.45832" lon="5.99253">
        <ele>927.80957</ele>
        <time>2011-02-04T11:10:56Z</time>
      </trkpt>
      <trkpt lat="44.45832" lon="5.9925">
        <ele>927.80957</ele>
        <time>2011-02-04T11:10:57Z</time>
      </trkpt>
      <trkpt lat="44.45827" lon="5.99195">
        <ele>931.174316</ele>
        <time>2011-02-04T11:11:20Z</time>
      </trkpt>
      <trkpt lat="44.45822" lon="5.99151">
        <ele>934.538818</ele>
        <time>2011-02-04T11:11:39Z</time>
      </trkpt>
      <trkpt lat="44.45816" lon="5.99108">
        <ele>937.422607</ele>
        <time>2011-02-04T11:11:57Z</time>
      </trkpt>
      <trkpt lat="44.45809" lon="5.99077">
        <ele>939.345215</ele>
        <time>2011-02-04T11:12:11Z</time>
      </trkpt>
      <trkpt lat="44.45798" lon="5.99038">
        <ele>942.229492</ele>
        <time>2011-02-04T11:12:29Z</time>
      </trkpt>
      <trkpt lat="44.45785" lon="5.98989">
        <ele>944.632568</ele>
        <time>2011-02-04T11:12:51Z</time>
      </trkpt>
      <trkpt lat="44.45777" lon="5.98965">
        <ele>946.55542</ele>
        <time>2011-02-04T11:13:02Z</time>
      </trkpt>
      <trkpt lat="44.45776" lon="5.98958">
        <ele>946.55542</ele>
        <time>2011-02-04T11:13:05Z</time>
      </trkpt>
      <trkpt lat="44.45773" lon="5.98951">
        <ele>947.035889</ele>
        <time>2011-02-04T11:13:08Z</time>
      </trkpt>
      <trkpt lat="44.45761" lon="5.98915">
        <ele>949.919922</ele>
        <time>2011-02-04T11:13:24Z</time>
      </trkpt>
      <trkpt lat="44.45746" lon="5.98865">
        <ele>952.803711</ele>
        <time>2011-02-04T11:13:47Z</time>
      </trkpt>
      <trkpt lat="44.45741" lon="5.98834">
        <ele>955.207031</ele>
        <time>2011-02-04T11:14:01Z</time>
      </trkpt>
      <trkpt lat="44.45734" lon="5.98793">
        <ele>958.571777</ele>
        <time>2011-02-04T11:14:20Z</time>
      </trkpt>
      <trkpt lat="44.4573" lon="5.98779">
        <ele>959.533203</ele>
        <time>2011-02-04T11:14:27Z</time>
      </trkpt>
      <trkpt lat="44.45726" lon="5.98773">
        <ele>960.494385</ele>
        <time>2011-02-04T11:14:31Z</time>
      </trkpt>
      <trkpt lat="44.45721" lon="5.98763">
        <ele>961.455811</ele>
        <time>2011-02-04T11:14:36Z</time>
      </trkpt>
      <trkpt lat="44.45706" lon="5.98741">
        <ele>963.378418</ele>
        <time>2011-02-04T11:14:49Z</time>
      </trkpt>
      <trkpt lat="44.4569" lon="5.98722">
        <ele>965.301025</ele>
        <time>2011-02-04T11:15:03Z</time>
      </trkpt>
      <trkpt lat="44.45671" lon="5.98695">
        <ele>968.184814</ele>
        <time>2011-02-04T11:15:19Z</time>
      </trkpt>
      <trkpt lat="44.45657" lon="5.98664">
        <ele>970.588135</ele>
        <time>2011-02-04T11:15:35Z</time>
      </trkpt>
      <trkpt lat="44.45637" lon="5.98626">
        <ele>973.952881</ele>
        <time>2011-02-04T11:15:56Z</time>
      </trkpt>
      <trkpt lat="44.45613" lon="5.98597">
        <ele>977.317627</ele>
        <time>2011-02-04T11:16:17Z</time>
      </trkpt>
      <trkpt lat="44.45601" lon="5.98583">
        <ele>979.23999</ele>
        <time>2011-02-04T11:16:27Z</time>
      </trkpt>
      <trkpt lat="44.45592" lon="5.98562">
        <ele>981.162842</ele>
        <time>2011-02-04T11:16:38Z</time>
      </trkpt>
      <trkpt lat="44.45589" lon="5.98552">
        <ele>982.124023</ele>
        <time>2011-02-04T11:16:43Z</time>
      </trkpt>
      <trkpt lat="44.45587" lon="5.98546">
        <ele>982.604736</ele>
        <time>2011-02-04T11:16:46Z</time>
      </trkpt>
      <trkpt lat="44.4557" lon="5.98505">
        <ele>986.449951</ele>
        <time>2011-02-04T11:17:08Z</time>
      </trkpt>
      <trkpt lat="44.45567" lon="5.98467">
        <ele>989.333984</ele>
        <time>2011-02-04T11:17:25Z</time>
      </trkpt>
      <trkpt lat="44.45571" lon="5.98458">
        <ele>989.814697</ele>
        <time>2011-02-04T11:17:30Z</time>
      </trkpt>
      <trkpt lat="44.45573" lon="5.98452">
        <ele>990.29541</ele>
        <time>2011-02-04T11:17:33Z</time>
      </trkpt>
      <trkpt lat="44.45591" lon="5.98416">
        <ele>993.179199</ele>
        <time>2011-02-04T11:17:53Z</time>
      </trkpt>
      <trkpt lat="44.45597" lon="5.98403">
        <ele>994.621094</ele>
        <time>2011-02-04T11:18:00Z</time>
      </trkpt>
      <trkpt lat="44.45609" lon="5.98358">
        <ele>997.024414</ele>
        <time>2011-02-04T11:18:21Z</time>
      </trkpt>
      <trkpt lat="44.45626" lon="5.98329">
        <ele>999.908447</ele>
        <time>2011-02-04T11:18:39Z</time>
      </trkpt>
      <trkpt lat="44.45644" lon="5.98301">
        <ele>1001.831055</ele>
        <time>2011-02-04T11:18:54Z</time>
      </trkpt>
      <trkpt lat="44.45658" lon="5.98272">
        <ele>1005.195801</ele>
        <time>2011-02-04T11:19:10Z</time>
      </trkpt>
      <trkpt lat="44.45661" lon="5.98267">
        <ele>1005.195801</ele>
        <time>2011-02-04T11:19:13Z</time>
      </trkpt>
      <trkpt lat="44.45666" lon="5.98259">
        <ele>1005.676514</ele>
        <time>2011-02-04T11:19:18Z</time>
      </trkpt>
      <trkpt lat="44.45674" lon="5.98235">
        <ele>1007.599121</ele>
        <time>2011-02-04T11:19:30Z</time>
      </trkpt>
      <trkpt lat="44.45689" lon="5.98179">
        <ele>1009.521729</ele>
        <time>2011-02-04T11:19:53Z</time>
      </trkpt>
      <trkpt lat="44.45699" lon="5.98133">
        <ele>1010.48291</ele>
        <time>2011-02-04T11:20:12Z</time>
      </trkpt>
      <trkpt lat="44.457" lon="5.98127">
        <ele>1010.48291</ele>
        <time>2011-02-04T11:20:28Z</time>
      </trkpt>
      <trkpt lat="44.457" lon="5.98127">
        <ele>1010.963623</ele>
        <time>2011-02-04T11:21:41Z</time>
      </trkpt>
      <trkpt lat="44.457" lon="5.98127">
        <ele>1009.521729</ele>
        <time>2011-02-04T11:21:43Z</time>
      </trkpt>
      <trkpt lat="44.45711" lon="5.98113">
        <ele>1009.041016</ele>
        <time>2011-02-04T11:22:00Z</time>
      </trkpt>
      <trkpt lat="44.45725" lon="5.98103">
        <ele>1007.599121</ele>
        <time>2011-02-04T11:22:04Z</time>
      </trkpt>
      <trkpt lat="44.45784" lon="5.98052">
        <ele>1005.195801</ele>
        <time>2011-02-04T11:22:17Z</time>
      </trkpt>
      <trkpt lat="44.45824" lon="5.97977">
        <ele>1002.792236</ele>
        <time>2011-02-04T11:22:29Z</time>
      </trkpt>
      <trkpt lat="44.45845" lon="5.97935">
        <ele>1002.311523</ele>
        <time>2011-02-04T11:22:36Z</time>
      </trkpt>
      <trkpt lat="44.45869" lon="5.97884">
        <ele>1002.311523</ele>
        <time>2011-02-04T11:22:49Z</time>
      </trkpt>
      <trkpt lat="44.45869" lon="5.97884">
        <ele>1004.234619</ele>
        <time>2011-02-04T11:23:01Z</time>
      </trkpt>
      <trkpt lat="44.45869" lon="5.97884">
        <ele>1001.831055</ele>
        <time>2011-02-04T11:23:23Z</time>
      </trkpt>
      <trkpt lat="44.45869" lon="5.97884">
        <ele>1003.753662</ele>
        <time>2011-02-04T11:24:15Z</time>
      </trkpt>
      <trkpt lat="44.45869" lon="5.97884">
        <ele>1003.272949</ele>
        <time>2011-02-04T11:24:26Z</time>
      </trkpt>
      <trkpt lat="44.45869" lon="5.97884">
        <ele>1004.715088</ele>
        <time>2011-02-04T11:25:36Z</time>
      </trkpt>
      <trkpt lat="44.45869" lon="5.97884">
        <ele>1003.753662</ele>
        <time>2011-02-04T11:25:46Z</time>
      </trkpt>
      <trkpt lat="44.45869" lon="5.97884">
        <ele>1003.753662</ele>
        <time>2011-02-04T11:26:25Z</time>
      </trkpt>
      <trkpt lat="44.45877" lon="5.97864">
        <ele>1004.234619</ele>
        <time>2011-02-04T11:26:30Z</time>
      </trkpt>
      <trkpt lat="44.45883" lon="5.9786">
        <ele>1003.753662</ele>
        <time>2011-02-04T11:26:34Z</time>
      </trkpt>
      <trkpt lat="44.45905" lon="5.97827">
        <ele>1002.311523</ele>
        <time>2011-02-04T11:26:42Z</time>
      </trkpt>
      <trkpt lat="44.4591" lon="5.97818">
        <ele>1002.311523</ele>
        <time>2011-02-04T11:26:44Z</time>
      </trkpt>
      <trkpt lat="44.45928" lon="5.97767">
        <ele>1001.350342</ele>
        <time>2011-02-04T11:26:50Z</time>
      </trkpt>
      <trkpt lat="44.45947" lon="5.97741">
        <ele>1002.311523</ele>
        <time>2011-02-04T11:27:03Z</time>
      </trkpt>
      <trkpt lat="44.45963" lon="5.97725">
        <ele>1001.350342</ele>
        <time>2011-02-04T11:27:08Z</time>
      </trkpt>
      <trkpt lat="44.45972" lon="5.97719">
        <ele>1000.869629</ele>
        <time>2011-02-04T11:27:12Z</time>
      </trkpt>
      <trkpt lat="44.45989" lon="5.97708">
        <ele>1001.831055</ele>
        <time>2011-02-04T11:27:16Z</time>
      </trkpt>
      <trkpt lat="44.46001" lon="5.977">
        <ele>1001.350342</ele>
        <time>2011-02-04T11:27:18Z</time>
      </trkpt>
      <trkpt lat="44.46028" lon="5.97552">
        <ele>1000.38916</ele>
        <time>2011-02-04T11:27:36Z</time>
      </trkpt>
      <trkpt lat="44.46035" lon="5.97525">
        <ele>999.908447</ele>
        <time>2011-02-04T11:27:40Z</time>
      </trkpt>
      <trkpt lat="44.46021" lon="5.97467">
        <ele>998.947021</ele>
        <time>2011-02-04T11:27:49Z</time>
      </trkpt>
      <trkpt lat="44.46016" lon="5.97464">
        <ele>999.427734</ele>
        <time>2011-02-04T11:27:50Z</time>
      </trkpt>
      <trkpt lat="44.46001" lon="5.97455">
        <ele>997.98584</ele>
        <time>2011-02-04T11:27:53Z</time>
      </trkpt>
      <trkpt lat="44.45975" lon="5.97444">
        <ele>997.505127</ele>
        <time>2011-02-04T11:27:58Z</time>
      </trkpt>
      <trkpt lat="44.45946" lon="5.97381">
        <ele>997.98584</ele>
        <time>2011-02-04T11:28:08Z</time>
      </trkpt>
      <trkpt lat="44.45946" lon="5.97359">
        <ele>997.98584</ele>
        <time>2011-02-04T11:28:11Z</time>
      </trkpt>
      <trkpt lat="44.45987" lon="5.97245">
        <ele>995.58252</ele>
        <time>2011-02-04T11:28:28Z</time>
      </trkpt>
      <trkpt lat="44.45996" lon="5.97221">
        <ele>997.024414</ele>
        <time>2011-02-04T11:28:32Z</time>
      </trkpt>
      <trkpt lat="44.4605" lon="5.97134">
        <ele>996.063232</ele>
        <time>2011-02-04T11:28:49Z</time>
      </trkpt>
      <trkpt lat="44.46074" lon="5.9712">
        <ele>995.58252</ele>
        <time>2011-02-04T11:28:54Z</time>
      </trkpt>
      <trkpt lat="44.46095" lon="5.97116">
        <ele>995.58252</ele>
        <time>2011-02-04T11:28:58Z</time>
      </trkpt>
      <trkpt lat="44.4611" lon="5.97108">
        <ele>994.621094</ele>
        <time>2011-02-04T11:29:01Z</time>
      </trkpt>
      <trkpt lat="44.46118" lon="5.9709">
        <ele>994.140625</ele>
        <time>2011-02-04T11:29:04Z</time>
      </trkpt>
      <trkpt lat="44.46157" lon="5.9699">
        <ele>995.58252</ele>
        <time>2011-02-04T11:29:21Z</time>
      </trkpt>
      <trkpt lat="44.46193" lon="5.96972">
        <ele>996.063232</ele>
        <time>2011-02-04T11:29:29Z</time>
      </trkpt>
      <trkpt lat="44.46203" lon="5.96967">
        <ele>994.621094</ele>
        <time>2011-02-04T11:29:31Z</time>
      </trkpt>
      <trkpt lat="44.46223" lon="5.96927">
        <ele>993.659912</ele>
        <time>2011-02-04T11:29:38Z</time>
      </trkpt>
      <trkpt lat="44.4626" lon="5.9682">
        <ele>992.69873</ele>
        <time>2011-02-04T11:29:55Z</time>
      </trkpt>
      <trkpt lat="44.46288" lon="5.9678">
        <ele>992.218018</ele>
        <time>2011-02-04T11:30:03Z</time>
      </trkpt>
      <trkpt lat="44.46319" lon="5.96762">
        <ele>991.737305</ele>
        <time>2011-02-04T11:30:09Z</time>
      </trkpt>
      <trkpt lat="44.46346" lon="5.96759">
        <ele>991.737305</ele>
        <time>2011-02-04T11:30:14Z</time>
      </trkpt>
      <trkpt lat="44.46428" lon="5.96732">
        <ele>990.775879</ele>
        <time>2011-02-04T11:30:29Z</time>
      </trkpt>
      <trkpt lat="44.46438" lon="5.9673">
        <ele>990.775879</ele>
        <time>2011-02-04T11:30:31Z</time>
      </trkpt>
      <trkpt lat="44.46469" lon="5.96704">
        <ele>991.256592</ele>
        <time>2011-02-04T11:30:38Z</time>
      </trkpt>
      <trkpt lat="44.46489" lon="5.96674">
        <ele>991.256592</ele>
        <time>2011-02-04T11:30:44Z</time>
      </trkpt>
      <trkpt lat="44.46505" lon="5.96663">
        <ele>991.256592</ele>
        <time>2011-02-04T11:30:48Z</time>
      </trkpt>
      <trkpt lat="44.46514" lon="5.96659">
        <ele>990.29541</ele>
        <time>2011-02-04T11:30:50Z</time>
      </trkpt>
      <trkpt lat="44.46537" lon="5.96662">
        <ele>990.29541</ele>
        <time>2011-02-04T11:30:55Z</time>
      </trkpt>
      <trkpt lat="44.46643" lon="5.96709">
        <ele>989.333984</ele>
        <time>2011-02-04T11:31:18Z</time>
      </trkpt>
      <trkpt lat="44.46763" lon="5.96763">
        <ele>989.814697</ele>
        <time>2011-02-04T11:31:43Z</time>
      </trkpt>
      <trkpt lat="44.46858" lon="5.96807">
        <ele>991.256592</ele>
        <time>2011-02-04T11:32:04Z</time>
      </trkpt>
      <trkpt lat="44.4693" lon="5.96838">
        <ele>992.69873</ele>
        <time>2011-02-04T11:32:23Z</time>
      </trkpt>
      <trkpt lat="44.46984" lon="5.96828">
        <ele>994.140625</ele>
        <time>2011-02-04T11:32:38Z</time>
      </trkpt>
      <trkpt lat="44.47072" lon="5.9679">
        <ele>996.543945</ele>
        <time>2011-02-04T11:33:02Z</time>
      </trkpt>
      <trkpt lat="44.47112" lon="5.96762">
        <ele>997.98584</ele>
        <time>2011-02-04T11:33:16Z</time>
      </trkpt>
      <trkpt lat="44.47165" lon="5.96757">
        <ele>1000.38916</ele>
        <time>2011-02-04T11:33:33Z</time>
      </trkpt>
      <trkpt lat="44.4721" lon="5.96765">
        <ele>1000.38916</ele>
        <time>2011-02-04T11:33:47Z</time>
      </trkpt>
      <trkpt lat="44.47246" lon="5.96779">
        <ele>999.427734</ele>
        <time>2011-02-04T11:33:56Z</time>
      </trkpt>
      <trkpt lat="44.47274" lon="5.96774">
        <ele>997.505127</ele>
        <time>2011-02-04T11:34:01Z</time>
      </trkpt>
      <trkpt lat="44.47317" lon="5.9676">
        <ele>1001.350342</ele>
        <time>2011-02-04T11:34:13Z</time>
      </trkpt>
      <trkpt lat="44.47351" lon="5.96752">
        <ele>1003.753662</ele>
        <time>2011-02-04T11:34:28Z</time>
      </trkpt>
      <trkpt lat="44.47402" lon="5.96749">
        <ele>1006.156982</ele>
        <time>2011-02-04T11:34:48Z</time>
      </trkpt>
      <trkpt lat="44.47457" lon="5.96745">
        <ele>1007.599121</ele>
        <time>2011-02-04T11:35:08Z</time>
      </trkpt>
      <trkpt lat="44.47472" lon="5.96717">
        <ele>1007.599121</ele>
        <time>2011-02-04T11:35:15Z</time>
      </trkpt>
      <trkpt lat="44.47479" lon="5.96704">
        <ele>1006.637695</ele>
        <time>2011-02-04T11:35:18Z</time>
      </trkpt>
      <trkpt lat="44.47491" lon="5.96687">
        <ele>1006.637695</ele>
        <time>2011-02-04T11:35:22Z</time>
      </trkpt>
      <trkpt lat="44.4754" lon="5.96643">
        <ele>1005.195801</ele>
        <time>2011-02-04T11:35:36Z</time>
      </trkpt>
      <trkpt lat="44.47559" lon="5.96639">
        <ele>1007.118408</ele>
        <time>2011-02-04T11:35:42Z</time>
      </trkpt>
      <trkpt lat="44.47565" lon="5.96643">
        <ele>1005.676514</ele>
        <time>2011-02-04T11:35:44Z</time>
      </trkpt>
      <trkpt lat="44.4758" lon="5.96691">
        <ele>1007.118408</ele>
        <time>2011-02-04T11:35:56Z</time>
      </trkpt>
      <trkpt lat="44.47552" lon="5.96759">
        <ele>1007.118408</ele>
        <time>2011-02-04T11:36:14Z</time>
      </trkpt>
      <trkpt lat="44.47548" lon="5.9681">
        <ele>1010.002197</ele>
        <time>2011-02-04T11:36:30Z</time>
      </trkpt>
      <trkpt lat="44.47527" lon="5.96868">
        <ele>1013.366943</ele>
        <time>2011-02-04T11:36:48Z</time>
      </trkpt>
      <trkpt lat="44.47502" lon="5.96906">
        <ele>1014.328125</ele>
        <time>2011-02-04T11:37:04Z</time>
      </trkpt>
      <trkpt lat="44.47497" lon="5.96926">
        <ele>1015.289551</ele>
        <time>2011-02-04T11:37:10Z</time>
      </trkpt>
      <trkpt lat="44.47522" lon="5.96966">
        <ele>1013.847412</ele>
        <time>2011-02-04T11:37:21Z</time>
      </trkpt>
      <trkpt lat="44.47527" lon="5.96974">
        <ele>1012.88623</ele>
        <time>2011-02-04T11:37:23Z</time>
      </trkpt>
      <trkpt lat="44.47579" lon="5.97028">
        <ele>1013.847412</ele>
        <time>2011-02-04T11:37:40Z</time>
      </trkpt>
      <trkpt lat="44.47603" lon="5.97052">
        <ele>1013.847412</ele>
        <time>2011-02-04T11:37:47Z</time>
      </trkpt>
      <trkpt lat="44.47633" lon="5.97088">
        <ele>1014.328125</ele>
        <time>2011-02-04T11:37:56Z</time>
      </trkpt>
      <trkpt lat="44.47686" lon="5.97197">
        <ele>1014.328125</ele>
        <time>2011-02-04T11:38:17Z</time>
      </trkpt>
      <trkpt lat="44.47729" lon="5.97268">
        <ele>1013.847412</ele>
        <time>2011-02-04T11:38:32Z</time>
      </trkpt>
      <trkpt lat="44.47744" lon="5.97277">
        <ele>1014.808838</ele>
        <time>2011-02-04T11:38:36Z</time>
      </trkpt>
      <trkpt lat="44.47755" lon="5.9728">
        <ele>1015.289551</ele>
        <time>2011-02-04T11:38:39Z</time>
      </trkpt>
      <trkpt lat="44.47776" lon="5.97286">
        <ele>1014.808838</ele>
        <time>2011-02-04T11:38:44Z</time>
      </trkpt>
      <trkpt lat="44.47795" lon="5.97331">
        <ele>1014.808838</ele>
        <time>2011-02-04T11:38:52Z</time>
      </trkpt>
      <trkpt lat="44.47773" lon="5.97363">
        <ele>1014.808838</ele>
        <time>2011-02-04T11:38:59Z</time>
      </trkpt>
      <trkpt lat="44.4773" lon="5.97403">
        <ele>1015.770264</ele>
        <time>2011-02-04T11:39:13Z</time>
      </trkpt>
      <trkpt lat="44.47727" lon="5.97461">
        <ele>1015.770264</ele>
        <time>2011-02-04T11:39:23Z</time>
      </trkpt>
      <trkpt lat="44.47727" lon="5.97497">
        <ele>1014.808838</ele>
        <time>2011-02-04T11:39:29Z</time>
      </trkpt>
      <trkpt lat="44.47734" lon="5.97544">
        <ele>1012.405518</ele>
        <time>2011-02-04T11:39:36Z</time>
      </trkpt>
      <trkpt lat="44.47761" lon="5.97597">
        <ele>1010.48291</ele>
        <time>2011-02-04T11:39:47Z</time>
      </trkpt>
      <trkpt lat="44.47795" lon="5.97657">
        <ele>1007.118408</ele>
        <time>2011-02-04T11:39:57Z</time>
      </trkpt>
      <trkpt lat="44.47844" lon="5.97736">
        <ele>1005.676514</ele>
        <time>2011-02-04T11:40:10Z</time>
      </trkpt>
      <trkpt lat="44.47894" lon="5.97809">
        <ele>1003.272949</ele>
        <time>2011-02-04T11:40:22Z</time>
      </trkpt>
      <trkpt lat="44.4791" lon="5.97825">
        <ele>1003.753662</ele>
        <time>2011-02-04T11:40:27Z</time>
      </trkpt>
      <trkpt lat="44.47926" lon="5.97849">
        <ele>1006.156982</ele>
        <time>2011-02-04T11:40:31Z</time>
      </trkpt>
      <trkpt lat="44.47933" lon="5.97865">
        <ele>1006.637695</ele>
        <time>2011-02-04T11:40:35Z</time>
      </trkpt>
      <trkpt lat="44.47963" lon="5.97913">
        <ele>1008.560303</ele>
        <time>2011-02-04T11:40:50Z</time>
      </trkpt>
      <trkpt lat="44.48" lon="5.97967">
        <ele>1011.444336</ele>
        <time>2011-02-04T11:41:10Z</time>
      </trkpt>
      <trkpt lat="44.48012" lon="5.97985">
        <ele>1011.925049</ele>
        <time>2011-02-04T11:41:17Z</time>
      </trkpt>
      <trkpt lat="44.48051" lon="5.98043">
        <ele>1014.808838</ele>
        <time>2011-02-04T11:41:41Z</time>
      </trkpt>
      <trkpt lat="44.48088" lon="5.98098">
        <ele>1017.692627</ele>
        <time>2011-02-04T11:42:04Z</time>
      </trkpt>
      <trkpt lat="44.4812" lon="5.98146">
        <ele>1020.096191</ele>
        <time>2011-02-04T11:42:24Z</time>
      </trkpt>
      <trkpt lat="44.48153" lon="5.98197">
        <ele>1022.499512</ele>
        <time>2011-02-04T11:42:45Z</time>
      </trkpt>
      <trkpt lat="44.4818" lon="5.98247">
        <ele>1025.383301</ele>
        <time>2011-02-04T11:43:04Z</time>
      </trkpt>
      <trkpt lat="44.4821" lon="5.98305">
        <ele>1028.748047</ele>
        <time>2011-02-04T11:43:26Z</time>
      </trkpt>
      <trkpt lat="44.48239" lon="5.98362">
        <ele>1031.631836</ele>
        <time>2011-02-04T11:43:48Z</time>
      </trkpt>
      <trkpt lat="44.48263" lon="5.98411">
        <ele>1034.515869</ele>
        <time>2011-02-04T11:44:07Z</time>
      </trkpt>
      <trkpt lat="44.48292" lon="5.98464">
        <ele>1037.880615</ele>
        <time>2011-02-04T11:44:28Z</time>
      </trkpt>
      <trkpt lat="44.48325" lon="5.9851">
        <ele>1040.764404</ele>
        <time>2011-02-04T11:44:49Z</time>
      </trkpt>
      <trkpt lat="44.48362" lon="5.98525">
        <ele>1041.72583</ele>
        <time>2011-02-04T11:45:05Z</time>
      </trkpt>
      <trkpt lat="44.48419" lon="5.98501">
        <ele>1042.206543</ele>
        <time>2011-02-04T11:45:23Z</time>
      </trkpt>
      <trkpt lat="44.48442" lon="5.98494">
        <ele>1042.206543</ele>
        <time>2011-02-04T11:45:29Z</time>
      </trkpt>
      <trkpt lat="44.485" lon="5.98502">
        <ele>1040.764404</ele>
        <time>2011-02-04T11:45:42Z</time>
      </trkpt>
      <trkpt lat="44.48529" lon="5.98516">
        <ele>1040.764404</ele>
        <time>2011-02-04T11:45:48Z</time>
      </trkpt>
      <trkpt lat="44.48549" lon="5.98537">
        <ele>1039.803223</ele>
        <time>2011-02-04T11:45:53Z</time>
      </trkpt>
      <trkpt lat="44.48577" lon="5.98584">
        <ele>1040.764404</ele>
        <time>2011-02-04T11:46:02Z</time>
      </trkpt>
      <trkpt lat="44.48596" lon="5.98601">
        <ele>1040.764404</ele>
        <time>2011-02-04T11:46:07Z</time>
      </trkpt>
      <trkpt lat="44.48689" lon="5.98626">
        <ele>1039.32251</ele>
        <time>2011-02-04T11:46:26Z</time>
      </trkpt>
      <trkpt lat="44.48711" lon="5.98628">
        <ele>1040.283936</ele>
        <time>2011-02-04T11:46:31Z</time>
      </trkpt>
      <trkpt lat="44.48769" lon="5.98618">
        <ele>1040.764404</ele>
        <time>2011-02-04T11:46:44Z</time>
      </trkpt>
      <trkpt lat="44.48799" lon="5.98611">
        <ele>1040.283936</ele>
        <time>2011-02-04T11:46:51Z</time>
      </trkpt>
      <trkpt lat="44.48886" lon="5.98589">
        <ele>1040.764404</ele>
        <time>2011-02-04T11:47:11Z</time>
      </trkpt>
      <trkpt lat="44.48995" lon="5.98563">
        <ele>1040.283936</ele>
        <time>2011-02-04T11:47:34Z</time>
      </trkpt>
      <trkpt lat="44.491" lon="5.98537">
        <ele>1038.361328</ele>
        <time>2011-02-04T11:47:53Z</time>
      </trkpt>
      <trkpt lat="44.49201" lon="5.98547">
        <ele>1036.919189</ele>
        <time>2011-02-04T11:48:10Z</time>
      </trkpt>
      <trkpt lat="44.49229" lon="5.98553">
        <ele>1037.880615</ele>
        <time>2011-02-04T11:48:15Z</time>
      </trkpt>
      <trkpt lat="44.49344" lon="5.98579">
        <ele>1039.32251</ele>
        <time>2011-02-04T11:48:40Z</time>
      </trkpt>
      <trkpt lat="44.49437" lon="5.986">
        <ele>1038.842041</ele>
        <time>2011-02-04T11:48:58Z</time>
      </trkpt>
      <trkpt lat="44.49454" lon="5.98604">
        <ele>1038.842041</ele>
        <time>2011-02-04T11:49:01Z</time>
      </trkpt>
      <trkpt lat="44.49493" lon="5.98614">
        <ele>1039.32251</ele>
        <time>2011-02-04T11:49:08Z</time>
      </trkpt>
      <trkpt lat="44.4952" lon="5.98631">
        <ele>1038.361328</ele>
        <time>2011-02-04T11:49:13Z</time>
      </trkpt>
      <trkpt lat="44.49556" lon="5.98654">
        <ele>1039.32251</ele>
        <time>2011-02-04T11:49:20Z</time>
      </trkpt>
      <trkpt lat="44.49576" lon="5.98659">
        <ele>1039.803223</ele>
        <time>2011-02-04T11:49:24Z</time>
      </trkpt>
      <trkpt lat="44.49605" lon="5.98674">
        <ele>1039.32251</ele>
        <time>2011-02-04T11:49:30Z</time>
      </trkpt>
      <trkpt lat="44.49619" lon="5.98705">
        <ele>1038.842041</ele>
        <time>2011-02-04T11:49:35Z</time>
      </trkpt>
      <trkpt lat="44.4964" lon="5.98834">
        <ele>1038.842041</ele>
        <time>2011-02-04T11:49:54Z</time>
      </trkpt>
      <trkpt lat="44.49674" lon="5.98914">
        <ele>1038.842041</ele>
        <time>2011-02-04T11:50:08Z</time>
      </trkpt>
      <trkpt lat="44.49697" lon="5.98939">
        <ele>1039.32251</ele>
        <time>2011-02-04T11:50:14Z</time>
      </trkpt>
      <trkpt lat="44.4972" lon="5.98955">
        <ele>1038.842041</ele>
        <time>2011-02-04T11:50:19Z</time>
      </trkpt>
      <trkpt lat="44.49752" lon="5.98979">
        <ele>1038.842041</ele>
        <time>2011-02-04T11:50:26Z</time>
      </trkpt>
      <trkpt lat="44.49769" lon="5.98999">
        <ele>1038.361328</ele>
        <time>2011-02-04T11:50:30Z</time>
      </trkpt>
      <trkpt lat="44.49782" lon="5.99035">
        <ele>1038.361328</ele>
        <time>2011-02-04T11:50:35Z</time>
      </trkpt>
      <trkpt lat="44.49795" lon="5.99154">
        <ele>1038.361328</ele>
        <time>2011-02-04T11:50:52Z</time>
      </trkpt>
      <trkpt lat="44.49799" lon="5.99235">
        <ele>1038.361328</ele>
        <time>2011-02-04T11:51:04Z</time>
      </trkpt>
      <trkpt lat="44.49793" lon="5.99267">
        <ele>1038.842041</ele>
        <time>2011-02-04T11:51:09Z</time>
      </trkpt>
      <trkpt lat="44.49766" lon="5.99351">
        <ele>1038.361328</ele>
        <time>2011-02-04T11:51:23Z</time>
      </trkpt>
      <trkpt lat="44.49752" lon="5.9937">
        <ele>1038.361328</ele>
        <time>2011-02-04T11:51:27Z</time>
      </trkpt>
      <trkpt lat="44.49729" lon="5.99393">
        <ele>1039.803223</ele>
        <time>2011-02-04T11:51:34Z</time>
      </trkpt>
      <trkpt lat="44.49724" lon="5.99403">
        <ele>1039.803223</ele>
        <time>2011-02-04T11:51:36Z</time>
      </trkpt>
      <trkpt lat="44.49711" lon="5.99432">
        <ele>1039.803223</ele>
        <time>2011-02-04T11:51:42Z</time>
      </trkpt>
      <trkpt lat="44.49705" lon="5.99448">
        <ele>1039.32251</ele>
        <time>2011-02-04T11:51:45Z</time>
      </trkpt>
      <trkpt lat="44.49701" lon="5.99462">
        <ele>1038.842041</ele>
        <time>2011-02-04T11:51:48Z</time>
      </trkpt>
      <trkpt lat="44.49702" lon="5.99489">
        <ele>1039.32251</ele>
        <time>2011-02-04T11:51:53Z</time>
      </trkpt>
      <trkpt lat="44.49708" lon="5.99504">
        <ele>1040.283936</ele>
        <time>2011-02-04T11:51:56Z</time>
      </trkpt>
      <trkpt lat="44.49718" lon="5.99517">
        <ele>1038.842041</ele>
        <time>2011-02-04T11:51:59Z</time>
      </trkpt>
      <trkpt lat="44.49723" lon="5.99519">
        <ele>1038.361328</ele>
        <time>2011-02-04T11:52:00Z</time>
      </trkpt>
      <trkpt lat="44.49783" lon="5.99549">
        <ele>1035.957764</ele>
        <time>2011-02-04T11:52:11Z</time>
      </trkpt>
      <trkpt lat="44.49877" lon="5.99551">
        <ele>1033.554443</ele>
        <time>2011-02-04T11:52:25Z</time>
      </trkpt>
      <trkpt lat="44.49906" lon="5.99549">
        <ele>1030.670654</ele>
        <time>2011-02-04T11:52:29Z</time>
      </trkpt>
      <trkpt lat="44.50033" lon="5.99511">
        <ele>1027.786621</ele>
        <time>2011-02-04T11:52:46Z</time>
      </trkpt>
      <trkpt lat="44.50087" lon="5.99493">
        <ele>1025.383301</ele>
        <time>2011-02-04T11:52:53Z</time>
      </trkpt>
      <trkpt lat="44.50103" lon="5.99489">
        <ele>1024.902832</ele>
        <time>2011-02-04T11:52:55Z</time>
      </trkpt>
      <trkpt lat="44.50181" lon="5.99502">
        <ele>1021.538086</ele>
        <time>2011-02-04T11:53:05Z</time>
      </trkpt>
      <trkpt lat="44.50189" lon="5.99505">
        <ele>1021.538086</ele>
        <time>2011-02-04T11:53:06Z</time>
      </trkpt>
      <trkpt lat="44.50262" lon="5.99536">
        <ele>1020.096191</ele>
        <time>2011-02-04T11:53:16Z</time>
      </trkpt>
      <trkpt lat="44.5034" lon="5.99525">
        <ele>1020.096191</ele>
        <time>2011-02-04T11:53:27Z</time>
      </trkpt>
      <trkpt lat="44.5044" lon="5.99525">
        <ele>1019.134766</ele>
        <time>2011-02-04T11:53:43Z</time>
      </trkpt>
      <trkpt lat="44.50446" lon="5.99525">
        <ele>1019.134766</ele>
        <time>2011-02-04T11:53:44Z</time>
      </trkpt>
      <trkpt lat="44.50458" lon="5.99525">
        <ele>1019.134766</ele>
        <time>2011-02-04T11:53:46Z</time>
      </trkpt>
      <trkpt lat="44.50548" lon="5.99489">
        <ele>1018.654053</ele>
        <time>2011-02-04T11:54:03Z</time>
      </trkpt>
      <trkpt lat="44.5062" lon="5.99437">
        <ele>1016.250732</ele>
        <time>2011-02-04T11:54:18Z</time>
      </trkpt>
      <trkpt lat="44.50625" lon="5.99432">
        <ele>1016.731445</ele>
        <time>2011-02-04T11:54:19Z</time>
      </trkpt>
      <trkpt lat="44.50641" lon="5.99409">
        <ele>1016.731445</ele>
        <time>2011-02-04T11:54:23Z</time>
      </trkpt>
      <trkpt lat="44.50669" lon="5.99347">
        <ele>1014.808838</ele>
        <time>2011-02-04T11:54:32Z</time>
      </trkpt>
      <trkpt lat="44.50731" lon="5.99239">
        <ele>1013.847412</ele>
        <time>2011-02-04T11:54:49Z</time>
      </trkpt>
      <trkpt lat="44.50745" lon="5.9922">
        <ele>1014.328125</ele>
        <time>2011-02-04T11:54:53Z</time>
      </trkpt>
      <trkpt lat="44.50768" lon="5.99203">
        <ele>1013.847412</ele>
        <time>2011-02-04T11:54:58Z</time>
      </trkpt>
      <trkpt lat="44.50805" lon="5.99195">
        <ele>1012.405518</ele>
        <time>2011-02-04T11:55:05Z</time>
      </trkpt>
      <trkpt lat="44.50882" lon="5.99206">
        <ele>1008.560303</ele>
        <time>2011-02-04T11:55:17Z</time>
      </trkpt>
      <trkpt lat="44.50912" lon="5.99212">
        <ele>1006.637695</ele>
        <time>2011-02-04T11:55:21Z</time>
      </trkpt>
      <trkpt lat="44.50965" lon="5.99221">
        <ele>1005.676514</ele>
        <time>2011-02-04T11:55:28Z</time>
      </trkpt>
      <trkpt lat="44.51005" lon="5.99269">
        <ele>1001.831055</ele>
        <time>2011-02-04T11:55:35Z</time>
      </trkpt>
      <trkpt lat="44.51007" lon="5.99312">
        <ele>1000.869629</ele>
        <time>2011-02-04T11:55:39Z</time>
      </trkpt>
      <trkpt lat="44.51004" lon="5.99344">
        <ele>999.427734</ele>
        <time>2011-02-04T11:55:42Z</time>
      </trkpt>
      <trkpt lat="44.50999" lon="5.99441">
        <ele>997.98584</ele>
        <time>2011-02-04T11:55:51Z</time>
      </trkpt>
      <trkpt lat="44.51016" lon="5.99489">
        <ele>996.543945</ele>
        <time>2011-02-04T11:55:56Z</time>
      </trkpt>
      <trkpt lat="44.51025" lon="5.99507">
        <ele>995.58252</ele>
        <time>2011-02-04T11:55:58Z</time>
      </trkpt>
      <trkpt lat="44.51088" lon="5.99622">
        <ele>994.140625</ele>
        <time>2011-02-04T11:56:12Z</time>
      </trkpt>
      <trkpt lat="44.51093" lon="5.99688">
        <ele>994.621094</ele>
        <time>2011-02-04T11:56:20Z</time>
      </trkpt>
      <trkpt lat="44.51085" lon="5.99701">
        <ele>994.621094</ele>
        <time>2011-02-04T11:56:22Z</time>
      </trkpt>
      <trkpt lat="44.51063" lon="5.99732">
        <ele>994.140625</ele>
        <time>2011-02-04T11:56:28Z</time>
      </trkpt>
      <trkpt lat="44.51036" lon="5.99807">
        <ele>996.063232</ele>
        <time>2011-02-04T11:56:40Z</time>
      </trkpt>
      <trkpt lat="44.51039" lon="5.99857">
        <ele>994.621094</ele>
        <time>2011-02-04T11:56:47Z</time>
      </trkpt>
      <trkpt lat="44.51045" lon="5.99873">
        <ele>993.179199</ele>
        <time>2011-02-04T11:56:49Z</time>
      </trkpt>
      <trkpt lat="44.51065" lon="5.99931">
        <ele>991.256592</ele>
        <time>2011-02-04T11:56:56Z</time>
      </trkpt>
      <trkpt lat="44.51081" lon="5.99964">
        <ele>990.29541</ele>
        <time>2011-02-04T11:57:00Z</time>
      </trkpt>
      <trkpt lat="44.51097" lon="5.99984">
        <ele>988.853516</ele>
        <time>2011-02-04T11:57:03Z</time>
      </trkpt>
      <trkpt lat="44.51103" lon="5.99989">
        <ele>989.333984</ele>
        <time>2011-02-04T11:57:04Z</time>
      </trkpt>
      <trkpt lat="44.51122" lon="6.00001">
        <ele>987.411133</ele>
        <time>2011-02-04T11:57:07Z</time>
      </trkpt>
      <trkpt lat="44.51142" lon="6.00015">
        <ele>987.411133</ele>
        <time>2011-02-04T11:57:10Z</time>
      </trkpt>
      <trkpt lat="44.51168" lon="6.00088">
        <ele>986.93042</ele>
        <time>2011-02-04T11:57:19Z</time>
      </trkpt>
      <trkpt lat="44.51168" lon="6.00097">
        <ele>986.93042</ele>
        <time>2011-02-04T11:57:20Z</time>
      </trkpt>
      <trkpt lat="44.51154" lon="6.00247">
        <ele>986.449951</ele>
        <time>2011-02-04T11:57:40Z</time>
      </trkpt>
      <trkpt lat="44.51166" lon="6.00346">
        <ele>987.891846</ele>
        <time>2011-02-04T11:57:54Z</time>
      </trkpt>
      <trkpt lat="44.51197" lon="6.00516">
        <ele>986.93042</ele>
        <time>2011-02-04T11:58:18Z</time>
      </trkpt>
      <trkpt lat="44.51227" lon="6.00686">
        <ele>984.046631</ele>
        <time>2011-02-04T11:58:39Z</time>
      </trkpt>
      <trkpt lat="44.51249" lon="6.00845">
        <ele>982.604736</ele>
        <time>2011-02-04T11:58:59Z</time>
      </trkpt>
      <trkpt lat="44.5126" lon="6.00881">
        <ele>983.085205</ele>
        <time>2011-02-04T11:59:04Z</time>
      </trkpt>
      <trkpt lat="44.51302" lon="6.00933">
        <ele>982.124023</ele>
        <time>2011-02-04T11:59:14Z</time>
      </trkpt>
      <trkpt lat="44.51348" lon="6.00965">
        <ele>979.720703</ele>
        <time>2011-02-04T11:59:22Z</time>
      </trkpt>
      <trkpt lat="44.51403" lon="6.00993">
        <ele>976.356201</ele>
        <time>2011-02-04T11:59:30Z</time>
      </trkpt>
      <trkpt lat="44.5141" lon="6.00997">
        <ele>976.356201</ele>
        <time>2011-02-04T11:59:31Z</time>
      </trkpt>
      <trkpt lat="44.51466" lon="6.01031">
        <ele>973.952881</ele>
        <time>2011-02-04T11:59:39Z</time>
      </trkpt>
      <trkpt lat="44.51492" lon="6.01072">
        <ele>971.549316</ele>
        <time>2011-02-04T11:59:44Z</time>
      </trkpt>
      <trkpt lat="44.51503" lon="6.01104">
        <ele>970.107422</ele>
        <time>2011-02-04T11:59:47Z</time>
      </trkpt>
      <trkpt lat="44.51514" lon="6.01144">
        <ele>968.665527</ele>
        <time>2011-02-04T11:59:51Z</time>
      </trkpt>
      <trkpt lat="44.51517" lon="6.01152">
        <ele>968.665527</ele>
        <time>2011-02-04T11:59:52Z</time>
      </trkpt>
      <trkpt lat="44.51552" lon="6.0118">
        <ele>967.223633</ele>
        <time>2011-02-04T11:59:59Z</time>
      </trkpt>
      <trkpt lat="44.51562" lon="6.0117">
        <ele>967.704102</ele>
        <time>2011-02-04T12:00:01Z</time>
      </trkpt>
      <trkpt lat="44.51595" lon="6.01133">
        <ele>969.626953</ele>
        <time>2011-02-04T12:00:09Z</time>
      </trkpt>
      <trkpt lat="44.51641" lon="6.01104">
        <ele>971.068848</ele>
        <time>2011-02-04T12:00:19Z</time>
      </trkpt>
      <trkpt lat="44.5173" lon="6.01048">
        <ele>971.068848</ele>
        <time>2011-02-04T12:00:40Z</time>
      </trkpt>
      <trkpt lat="44.51811" lon="6.0105">
        <ele>972.030273</ele>
        <time>2011-02-04T12:00:58Z</time>
      </trkpt>
      <trkpt lat="44.51898" lon="6.01066">
        <ele>971.549316</ele>
        <time>2011-02-04T12:01:16Z</time>
      </trkpt>
      <trkpt lat="44.51986" lon="6.01042">
        <ele>970.107422</ele>
        <time>2011-02-04T12:01:33Z</time>
      </trkpt>
      <trkpt lat="44.5205" lon="6.00993">
        <ele>970.107422</ele>
        <time>2011-02-04T12:01:47Z</time>
      </trkpt>
      <trkpt lat="44.5212" lon="6.00913">
        <ele>969.14624</ele>
        <time>2011-02-04T12:02:05Z</time>
      </trkpt>
      <trkpt lat="44.52155" lon="6.0085">
        <ele>967.704102</ele>
        <time>2011-02-04T12:02:16Z</time>
      </trkpt>
      <trkpt lat="44.52174" lon="6.00823">
        <ele>967.704102</ele>
        <time>2011-02-04T12:02:21Z</time>
      </trkpt>
      <trkpt lat="44.52209" lon="6.00795">
        <ele>967.223633</ele>
        <time>2011-02-04T12:02:28Z</time>
      </trkpt>
      <trkpt lat="44.52301" lon="6.00775">
        <ele>966.262207</ele>
        <time>2011-02-04T12:02:44Z</time>
      </trkpt>
      <trkpt lat="44.52424" lon="6.00725">
        <ele>964.3396</ele>
        <time>2011-02-04T12:03:05Z</time>
      </trkpt>
      <trkpt lat="44.52456" lon="6.00717">
        <ele>962.897705</ele>
        <time>2011-02-04T12:03:10Z</time>
      </trkpt>
      <trkpt lat="44.52478" lon="6.00719">
        <ele>961.455811</ele>
        <time>2011-02-04T12:03:13Z</time>
      </trkpt>
      <trkpt lat="44.52523" lon="6.0074">
        <ele>957.129883</ele>
        <time>2011-02-04T12:03:19Z</time>
      </trkpt>
      <trkpt lat="44.52578" lon="6.00797">
        <ele>954.726318</ele>
        <time>2011-02-04T12:03:27Z</time>
      </trkpt>
      <trkpt lat="44.52606" lon="6.00828">
        <ele>952.322998</ele>
        <time>2011-02-04T12:03:31Z</time>
      </trkpt>
      <trkpt lat="44.52642" lon="6.00869">
        <ele>950.400635</ele>
        <time>2011-02-04T12:03:36Z</time>
      </trkpt>
      <trkpt lat="44.52699" lon="6.00937">
        <ele>946.074707</ele>
        <time>2011-02-04T12:03:44Z</time>
      </trkpt>
      <trkpt lat="44.52707" lon="6.00946">
        <ele>946.074707</ele>
        <time>2011-02-04T12:03:45Z</time>
      </trkpt>
      <trkpt lat="44.52722" lon="6.00963">
        <ele>944.632568</ele>
        <time>2011-02-04T12:03:47Z</time>
      </trkpt>
      <trkpt lat="44.52752" lon="6.00994">
        <ele>943.190674</ele>
        <time>2011-02-04T12:03:51Z</time>
      </trkpt>
      <trkpt lat="44.52785" lon="6.01012">
        <ele>942.229492</ele>
        <time>2011-02-04T12:03:55Z</time>
      </trkpt>
      <trkpt lat="44.52876" lon="6.01032">
        <ele>945.593994</ele>
        <time>2011-02-04T12:04:07Z</time>
      </trkpt>
      <trkpt lat="44.52882" lon="6.01032">
        <ele>945.113281</ele>
        <time>2011-02-04T12:04:08Z</time>
      </trkpt>
      <trkpt lat="44.52916" lon="6.01039">
        <ele>946.55542</ele>
        <time>2011-02-04T12:04:14Z</time>
      </trkpt>
      <trkpt lat="44.52967" lon="6.01071">
        <ele>944.1521</ele>
        <time>2011-02-04T12:04:25Z</time>
      </trkpt>
      <trkpt lat="44.53007" lon="6.01099">
        <ele>940.306885</ele>
        <time>2011-02-04T12:04:31Z</time>
      </trkpt>
      <trkpt lat="44.53012" lon="6.01105">
        <ele>940.306885</ele>
        <time>2011-02-04T12:04:32Z</time>
      </trkpt>
      <trkpt lat="44.53044" lon="6.01136">
        <ele>937.90332</ele>
        <time>2011-02-04T12:04:36Z</time>
      </trkpt>
      <trkpt lat="44.53085" lon="6.01148">
        <ele>939.825928</ele>
        <time>2011-02-04T12:04:41Z</time>
      </trkpt>
      <trkpt lat="44.53154" lon="6.01122">
        <ele>941.268066</ele>
        <time>2011-02-04T12:04:50Z</time>
      </trkpt>
      <trkpt lat="44.53196" lon="6.01105">
        <ele>944.632568</ele>
        <time>2011-02-04T12:05:03Z</time>
      </trkpt>
      <trkpt lat="44.53261" lon="6.01039">
        <ele>942.229492</ele>
        <time>2011-02-04T12:05:20Z</time>
      </trkpt>
      <trkpt lat="44.53298" lon="6.0103">
        <ele>945.593994</ele>
        <time>2011-02-04T12:05:29Z</time>
      </trkpt>
      <trkpt lat="44.53358" lon="6.01015">
        <ele>947.035889</ele>
        <time>2011-02-04T12:05:47Z</time>
      </trkpt>
      <trkpt lat="44.53429" lon="6.01017">
        <ele>949.439209</ele>
        <time>2011-02-04T12:06:07Z</time>
      </trkpt>
      <trkpt lat="44.53476" lon="6.01025">
        <ele>951.842529</ele>
        <time>2011-02-04T12:06:22Z</time>
      </trkpt>
      <trkpt lat="44.5353" lon="6.01039">
        <ele>955.207031</ele>
        <time>2011-02-04T12:06:43Z</time>
      </trkpt>
      <trkpt lat="44.53576" lon="6.01089">
        <ele>956.64917</ele>
        <time>2011-02-04T12:07:03Z</time>
      </trkpt>
      <trkpt lat="44.53591" lon="6.01141">
        <ele>956.168457</ele>
        <time>2011-02-04T12:07:14Z</time>
      </trkpt>
      <trkpt lat="44.53593" lon="6.01152">
        <ele>955.207031</ele>
        <time>2011-02-04T12:07:16Z</time>
      </trkpt>
      <trkpt lat="44.53593" lon="6.01257">
        <ele>956.168457</ele>
        <time>2011-02-04T12:07:32Z</time>
      </trkpt>
      <trkpt lat="44.53596" lon="6.01282">
        <ele>953.765137</ele>
        <time>2011-02-04T12:07:36Z</time>
      </trkpt>
      <trkpt lat="44.53602" lon="6.0131">
        <ele>952.803711</ele>
        <time>2011-02-04T12:07:40Z</time>
      </trkpt>
      <trkpt lat="44.53618" lon="6.01342">
        <ele>952.322998</ele>
        <time>2011-02-04T12:07:45Z</time>
      </trkpt>
      <trkpt lat="44.53632" lon="6.01381">
        <ele>952.803711</ele>
        <time>2011-02-04T12:07:51Z</time>
      </trkpt>
      <trkpt lat="44.53643" lon="6.01396">
        <ele>954.24585</ele>
        <time>2011-02-04T12:07:55Z</time>
      </trkpt>
      <trkpt lat="44.53664" lon="6.01427">
        <ele>958.091309</ele>
        <time>2011-02-04T12:08:07Z</time>
      </trkpt>
      <trkpt lat="44.53685" lon="6.01456">
        <ele>957.610596</ele>
        <time>2011-02-04T12:08:18Z</time>
      </trkpt>
      <trkpt lat="44.53691" lon="6.01465">
        <ele>959.533203</ele>
        <time>2011-02-04T12:08:22Z</time>
      </trkpt>
      <trkpt lat="44.53726" lon="6.01492">
        <ele>962.416992</ele>
        <time>2011-02-04T12:08:39Z</time>
      </trkpt>
      <trkpt lat="44.53772" lon="6.01537">
        <ele>963.858887</ele>
        <time>2011-02-04T12:09:01Z</time>
      </trkpt>
      <trkpt lat="44.53789" lon="6.01585">
        <ele>962.897705</ele>
        <time>2011-02-04T12:09:11Z</time>
      </trkpt>
      <trkpt lat="44.53797" lon="6.01617">
        <ele>961.455811</ele>
        <time>2011-02-04T12:09:16Z</time>
      </trkpt>
      <trkpt lat="44.53812" lon="6.01649">
        <ele>960.975098</ele>
        <time>2011-02-04T12:09:22Z</time>
      </trkpt>
      <trkpt lat="44.53824" lon="6.01658">
        <ele>962.416992</ele>
        <time>2011-02-04T12:09:25Z</time>
      </trkpt>
      <trkpt lat="44.53865" lon="6.01675">
        <ele>964.820313</ele>
        <time>2011-02-04T12:09:38Z</time>
      </trkpt>
      <trkpt lat="44.53911" lon="6.01713">
        <ele>968.184814</ele>
        <time>2011-02-04T12:09:57Z</time>
      </trkpt>
      <trkpt lat="44.53948" lon="6.01762">
        <ele>970.107422</ele>
        <time>2011-02-04T12:10:15Z</time>
      </trkpt>
      <trkpt lat="44.53982" lon="6.01794">
        <ele>972.030273</ele>
        <time>2011-02-04T12:10:29Z</time>
      </trkpt>
      <trkpt lat="44.53982" lon="6.01806">
        <ele>972.030273</ele>
        <time>2011-02-04T12:10:33Z</time>
      </trkpt>
      <trkpt lat="44.53978" lon="6.01895">
        <ele>972.030273</ele>
        <time>2011-02-04T12:10:51Z</time>
      </trkpt>
      <trkpt lat="44.53954" lon="6.0199">
        <ele>971.549316</ele>
        <time>2011-02-04T12:11:10Z</time>
      </trkpt>
      <trkpt lat="44.53957" lon="6.02041">
        <ele>972.991699</ele>
        <time>2011-02-04T12:11:19Z</time>
      </trkpt>
      <trkpt lat="44.53994" lon="6.02144">
        <ele>972.510986</ele>
        <time>2011-02-04T12:11:37Z</time>
      </trkpt>
      <trkpt lat="44.54" lon="6.02169">
        <ele>972.991699</ele>
        <time>2011-02-04T12:11:41Z</time>
      </trkpt>
      <trkpt lat="44.54009" lon="6.02287">
        <ele>973.472412</ele>
        <time>2011-02-04T12:12:00Z</time>
      </trkpt>
      <trkpt lat="44.53993" lon="6.02374">
        <ele>973.952881</ele>
        <time>2011-02-04T12:12:16Z</time>
      </trkpt>
      <trkpt lat="44.53991" lon="6.02396">
        <ele>974.914307</ele>
        <time>2011-02-04T12:12:20Z</time>
      </trkpt>
      <trkpt lat="44.53989" lon="6.02415">
        <ele>975.875488</ele>
        <time>2011-02-04T12:12:24Z</time>
      </trkpt>
      <trkpt lat="44.54006" lon="6.02501">
        <ele>976.836914</ele>
        <time>2011-02-04T12:12:40Z</time>
      </trkpt>
      <trkpt lat="44.54036" lon="6.02543">
        <ele>976.836914</ele>
        <time>2011-02-04T12:12:51Z</time>
      </trkpt>
      <trkpt lat="44.54085" lon="6.02568">
        <ele>977.317627</ele>
        <time>2011-02-04T12:13:04Z</time>
      </trkpt>
      <trkpt lat="44.54102" lon="6.02568">
        <ele>975.394775</ele>
        <time>2011-02-04T12:13:08Z</time>
      </trkpt>
      <trkpt lat="44.54123" lon="6.02563">
        <ele>976.356201</ele>
        <time>2011-02-04T12:13:13Z</time>
      </trkpt>
      <trkpt lat="44.54212" lon="6.02514">
        <ele>976.836914</ele>
        <time>2011-02-04T12:13:34Z</time>
      </trkpt>
      <trkpt lat="44.54298" lon="6.02454">
        <ele>977.798096</ele>
        <time>2011-02-04T12:13:55Z</time>
      </trkpt>
      <trkpt lat="44.54321" lon="6.02435">
        <ele>976.836914</ele>
        <time>2011-02-04T12:14:00Z</time>
      </trkpt>
      <trkpt lat="44.54414" lon="6.02393">
        <ele>977.317627</ele>
        <time>2011-02-04T12:14:19Z</time>
      </trkpt>
      <trkpt lat="44.5447" lon="6.02377">
        <ele>976.356201</ele>
        <time>2011-02-04T12:14:31Z</time>
      </trkpt>
      <trkpt lat="44.54489" lon="6.02377">
        <ele>975.875488</ele>
        <time>2011-02-04T12:14:35Z</time>
      </trkpt>
      <trkpt lat="44.54589" lon="6.02387">
        <ele>976.356201</ele>
        <time>2011-02-04T12:14:57Z</time>
      </trkpt>
      <trkpt lat="44.54721" lon="6.02397">
        <ele>975.875488</ele>
        <time>2011-02-04T12:15:24Z</time>
      </trkpt>
      <trkpt lat="44.54871" lon="6.0241">
        <ele>976.836914</ele>
        <time>2011-02-04T12:15:54Z</time>
      </trkpt>
      <trkpt lat="44.54906" lon="6.02415">
        <ele>976.836914</ele>
        <time>2011-02-04T12:16:01Z</time>
      </trkpt>
      <trkpt lat="44.54928" lon="6.02426">
        <ele>975.875488</ele>
        <time>2011-02-04T12:16:05Z</time>
      </trkpt>
      <trkpt lat="44.5495" lon="6.02459">
        <ele>975.394775</ele>
        <time>2011-02-04T12:16:11Z</time>
      </trkpt>
      <trkpt lat="44.54958" lon="6.02488">
        <ele>975.875488</ele>
        <time>2011-02-04T12:16:15Z</time>
      </trkpt>
      <trkpt lat="44.54949" lon="6.02607">
        <ele>977.798096</ele>
        <time>2011-02-04T12:16:33Z</time>
      </trkpt>
      <trkpt lat="44.54955" lon="6.02726">
        <ele>980.201416</ele>
        <time>2011-02-04T12:16:54Z</time>
      </trkpt>
      <trkpt lat="44.54959" lon="6.02743">
        <ele>980.682129</ele>
        <time>2011-02-04T12:16:57Z</time>
      </trkpt>
      <trkpt lat="44.55014" lon="6.02849">
        <ele>980.201416</ele>
        <time>2011-02-04T12:17:20Z</time>
      </trkpt>
      <trkpt lat="44.5508" lon="6.02954">
        <ele>979.23999</ele>
        <time>2011-02-04T12:17:41Z</time>
      </trkpt>
      <trkpt lat="44.55136" lon="6.03044">
        <ele>976.356201</ele>
        <time>2011-02-04T12:17:56Z</time>
      </trkpt>
      <trkpt lat="44.55145" lon="6.03057">
        <ele>974.914307</ele>
        <time>2011-02-04T12:17:58Z</time>
      </trkpt>
      <trkpt lat="44.55182" lon="6.03114">
        <ele>971.549316</ele>
        <time>2011-02-04T12:18:06Z</time>
      </trkpt>
      <trkpt lat="44.55187" lon="6.03122">
        <ele>971.549316</ele>
        <time>2011-02-04T12:18:07Z</time>
      </trkpt>
      <trkpt lat="44.5522" lon="6.03169">
        <ele>968.184814</ele>
        <time>2011-02-04T12:18:13Z</time>
      </trkpt>
      <trkpt lat="44.55225" lon="6.03178">
        <ele>968.184814</ele>
        <time>2011-02-04T12:18:14Z</time>
      </trkpt>
      <trkpt lat="44.55237" lon="6.03195">
        <ele>966.74292</ele>
        <time>2011-02-04T12:18:16Z</time>
      </trkpt>
      <trkpt lat="44.55289" lon="6.03296">
        <ele>962.897705</ele>
        <time>2011-02-04T12:18:26Z</time>
      </trkpt>
      <trkpt lat="44.55296" lon="6.03322">
        <ele>961.936523</ele>
        <time>2011-02-04T12:18:28Z</time>
      </trkpt>
      <trkpt lat="44.553" lon="6.03349">
        <ele>960.975098</ele>
        <time>2011-02-04T12:18:30Z</time>
      </trkpt>
      <trkpt lat="44.55302" lon="6.03376">
        <ele>958.571777</ele>
        <time>2011-02-04T12:18:32Z</time>
      </trkpt>
      <trkpt lat="44.55299" lon="6.03417">
        <ele>956.64917</ele>
        <time>2011-02-04T12:18:35Z</time>
      </trkpt>
      <trkpt lat="44.55261" lon="6.03516">
        <ele>953.765137</ele>
        <time>2011-02-04T12:18:44Z</time>
      </trkpt>
      <trkpt lat="44.55187" lon="6.03578">
        <ele>952.803711</ele>
        <time>2011-02-04T12:18:54Z</time>
      </trkpt>
      <trkpt lat="44.55152" lon="6.03585">
        <ele>951.361816</ele>
        <time>2011-02-04T12:18:58Z</time>
      </trkpt>
      <trkpt lat="44.55117" lon="6.03586">
        <ele>948.958496</ele>
        <time>2011-02-04T12:19:02Z</time>
      </trkpt>
      <trkpt lat="44.55083" lon="6.03589">
        <ele>947.997314</ele>
        <time>2011-02-04T12:19:06Z</time>
      </trkpt>
      <trkpt lat="44.55057" lon="6.03596">
        <ele>946.55542</ele>
        <time>2011-02-04T12:19:09Z</time>
      </trkpt>
      <trkpt lat="44.55041" lon="6.03605">
        <ele>944.632568</ele>
        <time>2011-02-04T12:19:11Z</time>
      </trkpt>
      <trkpt lat="44.55008" lon="6.03633">
        <ele>941.268066</ele>
        <time>2011-02-04T12:19:15Z</time>
      </trkpt>
      <trkpt lat="44.54999" lon="6.0364">
        <ele>941.268066</ele>
        <time>2011-02-04T12:19:16Z</time>
      </trkpt>
      <trkpt lat="44.54936" lon="6.03695">
        <ele>937.90332</ele>
        <time>2011-02-04T12:19:24Z</time>
      </trkpt>
      <trkpt lat="44.54921" lon="6.03708">
        <ele>936.461426</ele>
        <time>2011-02-04T12:19:26Z</time>
      </trkpt>
      <trkpt lat="44.54894" lon="6.0373">
        <ele>935.980713</ele>
        <time>2011-02-04T12:19:30Z</time>
      </trkpt>
      <trkpt lat="44.54862" lon="6.03743">
        <ele>934.058105</ele>
        <time>2011-02-04T12:19:34Z</time>
      </trkpt>
      <trkpt lat="44.54854" lon="6.03744">
        <ele>934.058105</ele>
        <time>2011-02-04T12:19:35Z</time>
      </trkpt>
      <trkpt lat="44.54835" lon="6.03747">
        <ele>934.538818</ele>
        <time>2011-02-04T12:19:38Z</time>
      </trkpt>
      <trkpt lat="44.5481" lon="6.0378">
        <ele>934.538818</ele>
        <time>2011-02-04T12:19:47Z</time>
      </trkpt>
      <trkpt lat="44.54827" lon="6.03824">
        <ele>933.09668</ele>
        <time>2011-02-04T12:19:55Z</time>
      </trkpt>
      <trkpt lat="44.54846" lon="6.03825">
        <ele>931.174316</ele>
        <time>2011-02-04T12:19:58Z</time>
      </trkpt>
      <trkpt lat="44.54857" lon="6.0382">
        <ele>929.732178</ele>
        <time>2011-02-04T12:20:00Z</time>
      </trkpt>
      <trkpt lat="44.54864" lon="6.03816">
        <ele>927.329102</ele>
        <time>2011-02-04T12:20:01Z</time>
      </trkpt>
      <trkpt lat="44.54896" lon="6.03799">
        <ele>924.925781</ele>
        <time>2011-02-04T12:20:05Z</time>
      </trkpt>
      <trkpt lat="44.54915" lon="6.03792">
        <ele>923.00293</ele>
        <time>2011-02-04T12:20:07Z</time>
      </trkpt>
      <trkpt lat="44.54926" lon="6.03791">
        <ele>923.00293</ele>
        <time>2011-02-04T12:20:08Z</time>
      </trkpt>
      <trkpt lat="44.54964" lon="6.03794">
        <ele>921.080322</ele>
        <time>2011-02-04T12:20:12Z</time>
      </trkpt>
      <trkpt lat="44.55017" lon="6.03806">
        <ele>918.196289</ele>
        <time>2011-02-04T12:20:18Z</time>
      </trkpt>
      <trkpt lat="44.55042" lon="6.0381">
        <ele>916.754395</ele>
        <time>2011-02-04T12:20:21Z</time>
      </trkpt>
      <trkpt lat="44.5508" lon="6.03817">
        <ele>913.389893</ele>
        <time>2011-02-04T12:20:25Z</time>
      </trkpt>
      <trkpt lat="44.55089" lon="6.0382">
        <ele>913.389893</ele>
        <time>2011-02-04T12:20:26Z</time>
      </trkpt>
      <trkpt lat="44.55107" lon="6.03826">
        <ele>911.947998</ele>
        <time>2011-02-04T12:20:28Z</time>
      </trkpt>
      <trkpt lat="44.55144" lon="6.03842">
        <ele>908.583252</ele>
        <time>2011-02-04T12:20:32Z</time>
      </trkpt>
      <trkpt lat="44.55154" lon="6.03845">
        <ele>908.583252</ele>
        <time>2011-02-04T12:20:33Z</time>
      </trkpt>
      <trkpt lat="44.55225" lon="6.0389">
        <ele>905.218506</ele>
        <time>2011-02-04T12:20:41Z</time>
      </trkpt>
      <trkpt lat="44.55274" lon="6.03926">
        <ele>902.815186</ele>
        <time>2011-02-04T12:20:47Z</time>
      </trkpt>
      <trkpt lat="44.55318" lon="6.0397">
        <ele>899.931396</ele>
        <time>2011-02-04T12:20:53Z</time>
      </trkpt>
      <trkpt lat="44.55397" lon="6.0406">
        <ele>895.124756</ele>
        <time>2011-02-04T12:21:04Z</time>
      </trkpt>
      <trkpt lat="44.55405" lon="6.04067">
        <ele>895.124756</ele>
        <time>2011-02-04T12:21:05Z</time>
      </trkpt>
      <trkpt lat="44.5542" lon="6.04081">
        <ele>893.682861</ele>
        <time>2011-02-04T12:21:07Z</time>
      </trkpt>
      <trkpt lat="44.55441" lon="6.04106">
        <ele>891.76001</ele>
        <time>2011-02-04T12:21:10Z</time>
      </trkpt>
      <trkpt lat="44.55467" lon="6.04141">
        <ele>889.356689</ele>
        <time>2011-02-04T12:21:14Z</time>
      </trkpt>
      <trkpt lat="44.55516" lon="6.04227">
        <ele>885.511475</ele>
        <time>2011-02-04T12:21:22Z</time>
      </trkpt>
      <trkpt lat="44.55529" lon="6.04249">
        <ele>884.550293</ele>
        <time>2011-02-04T12:21:24Z</time>
      </trkpt>
      <trkpt lat="44.55541" lon="6.04271">
        <ele>883.108154</ele>
        <time>2011-02-04T12:21:26Z</time>
      </trkpt>
      <trkpt lat="44.55583" lon="6.04343">
        <ele>879.743652</ele>
        <time>2011-02-04T12:21:33Z</time>
      </trkpt>
      <trkpt lat="44.55609" lon="6.04397">
        <ele>876.859863</ele>
        <time>2011-02-04T12:21:38Z</time>
      </trkpt>
      <trkpt lat="44.55619" lon="6.04421">
        <ele>875.41748</ele>
        <time>2011-02-04T12:21:40Z</time>
      </trkpt>
      <trkpt lat="44.55626" lon="6.04444">
        <ele>873.975586</ele>
        <time>2011-02-04T12:21:42Z</time>
      </trkpt>
      <trkpt lat="44.55641" lon="6.04507">
        <ele>871.572266</ele>
        <time>2011-02-04T12:21:47Z</time>
      </trkpt>
      <trkpt lat="44.5565" lon="6.04558">
        <ele>869.169189</ele>
        <time>2011-02-04T12:21:51Z</time>
      </trkpt>
      <trkpt lat="44.55662" lon="6.04648">
        <ele>867.246582</ele>
        <time>2011-02-04T12:21:58Z</time>
      </trkpt>
      <trkpt lat="44.55666" lon="6.04687">
        <ele>864.362549</ele>
        <time>2011-02-04T12:22:01Z</time>
      </trkpt>
      <trkpt lat="44.55677" lon="6.04792">
        <ele>860.517334</ele>
        <time>2011-02-04T12:22:09Z</time>
      </trkpt>
      <trkpt lat="44.557" lon="6.04883">
        <ele>856.191162</ele>
        <time>2011-02-04T12:22:16Z</time>
      </trkpt>
      <trkpt lat="44.55705" lon="6.04896">
        <ele>856.191162</ele>
        <time>2011-02-04T12:22:17Z</time>
      </trkpt>
      <trkpt lat="44.55727" lon="6.04964">
        <ele>852.82666</ele>
        <time>2011-02-04T12:22:22Z</time>
      </trkpt>
      <trkpt lat="44.55734" lon="6.04992">
        <ele>851.384766</ele>
        <time>2011-02-04T12:22:24Z</time>
      </trkpt>
      <trkpt lat="44.55746" lon="6.05051">
        <ele>848.981445</ele>
        <time>2011-02-04T12:22:28Z</time>
      </trkpt>
      <trkpt lat="44.55757" lon="6.05125">
        <ele>846.097656</ele>
        <time>2011-02-04T12:22:33Z</time>
      </trkpt>
      <trkpt lat="44.55763" lon="6.05186">
        <ele>842.73291</ele>
        <time>2011-02-04T12:22:37Z</time>
      </trkpt>
      <trkpt lat="44.55764" lon="6.05201">
        <ele>842.73291</ele>
        <time>2011-02-04T12:22:38Z</time>
      </trkpt>
      <trkpt lat="44.55765" lon="6.05231">
        <ele>840.810059</ele>
        <time>2011-02-04T12:22:40Z</time>
      </trkpt>
      <trkpt lat="44.55763" lon="6.05306">
        <ele>838.887695</ele>
        <time>2011-02-04T12:22:45Z</time>
      </trkpt>
      <trkpt lat="44.55753" lon="6.05458">
        <ele>836.964844</ele>
        <time>2011-02-04T12:22:57Z</time>
      </trkpt>
      <trkpt lat="44.55748" lon="6.05475">
        <ele>835.522949</ele>
        <time>2011-02-04T12:22:59Z</time>
      </trkpt>
      <trkpt lat="44.55742" lon="6.05489">
        <ele>837.92627</ele>
        <time>2011-02-04T12:23:01Z</time>
      </trkpt>
      <trkpt lat="44.55739" lon="6.05495">
        <ele>838.406982</ele>
        <time>2011-02-04T12:23:02Z</time>
      </trkpt>
      <trkpt lat="44.5574" lon="6.0553">
        <ele>836.484375</ele>
        <time>2011-02-04T12:23:07Z</time>
      </trkpt>
      <trkpt lat="44.55745" lon="6.05546">
        <ele>835.522949</ele>
        <time>2011-02-04T12:23:09Z</time>
      </trkpt>
      <trkpt lat="44.55752" lon="6.0562">
        <ele>832.63916</ele>
        <time>2011-02-04T12:23:17Z</time>
      </trkpt>
      <trkpt lat="44.55752" lon="6.05666">
        <ele>834.081055</ele>
        <time>2011-02-04T12:23:22Z</time>
      </trkpt>
      <trkpt lat="44.55749" lon="6.05788">
        <ele>831.677734</ele>
        <time>2011-02-04T12:23:36Z</time>
      </trkpt>
      <trkpt lat="44.55745" lon="6.05905">
        <ele>828.313232</ele>
        <time>2011-02-04T12:23:48Z</time>
      </trkpt>
      <trkpt lat="44.55743" lon="6.05976">
        <ele>829.755127</ele>
        <time>2011-02-04T12:23:56Z</time>
      </trkpt>
      <trkpt lat="44.55739" lon="6.06008">
        <ele>829.755127</ele>
        <time>2011-02-04T12:24:00Z</time>
      </trkpt>
      <trkpt lat="44.55738" lon="6.06021">
        <ele>829.274414</ele>
        <time>2011-02-04T12:24:02Z</time>
      </trkpt>
      <trkpt lat="44.55719" lon="6.06047">
        <ele>829.755127</ele>
        <time>2011-02-04T12:24:06Z</time>
      </trkpt>
      <trkpt lat="44.55705" lon="6.06068">
        <ele>827.351807</ele>
        <time>2011-02-04T12:24:10Z</time>
      </trkpt>
      <trkpt lat="44.55662" lon="6.06123">
        <ele>823.987061</ele>
        <time>2011-02-04T12:24:19Z</time>
      </trkpt>
      <trkpt lat="44.55654" lon="6.06137">
        <ele>823.025879</ele>
        <time>2011-02-04T12:24:21Z</time>
      </trkpt>
      <trkpt lat="44.55641" lon="6.06173">
        <ele>821.103271</ele>
        <time>2011-02-04T12:24:26Z</time>
      </trkpt>
      <trkpt lat="44.55659" lon="6.06223">
        <ele>822.545166</ele>
        <time>2011-02-04T12:24:34Z</time>
      </trkpt>
      <trkpt lat="44.55691" lon="6.0625">
        <ele>819.661377</ele>
        <time>2011-02-04T12:24:40Z</time>
      </trkpt>
      <trkpt lat="44.55707" lon="6.06266">
        <ele>816.777344</ele>
        <time>2011-02-04T12:24:43Z</time>
      </trkpt>
      <trkpt lat="44.55723" lon="6.06339">
        <ele>815.335449</ele>
        <time>2011-02-04T12:24:52Z</time>
      </trkpt>
      <trkpt lat="44.55705" lon="6.06378">
        <ele>812.451416</ele>
        <time>2011-02-04T12:24:57Z</time>
      </trkpt>
      <trkpt lat="44.55699" lon="6.06383">
        <ele>811.970703</ele>
        <time>2011-02-04T12:24:58Z</time>
      </trkpt>
      <trkpt lat="44.55667" lon="6.06413">
        <ele>809.567383</ele>
        <time>2011-02-04T12:25:04Z</time>
      </trkpt>
      <trkpt lat="44.55629" lon="6.06449">
        <ele>806.68335</ele>
        <time>2011-02-04T12:25:10Z</time>
      </trkpt>
      <trkpt lat="44.55616" lon="6.06462">
        <ele>804.760742</ele>
        <time>2011-02-04T12:25:12Z</time>
      </trkpt>
      <trkpt lat="44.55596" lon="6.06532">
        <ele>802.357422</ele>
        <time>2011-02-04T12:25:20Z</time>
      </trkpt>
      <trkpt lat="44.55612" lon="6.06592">
        <ele>798.031738</ele>
        <time>2011-02-04T12:25:26Z</time>
      </trkpt>
      <trkpt lat="44.55615" lon="6.06603">
        <ele>798.031738</ele>
        <time>2011-02-04T12:25:27Z</time>
      </trkpt>
      <trkpt lat="44.55645" lon="6.06697">
        <ele>795.147461</ele>
        <time>2011-02-04T12:25:36Z</time>
      </trkpt>
      <trkpt lat="44.5566" lon="6.06747">
        <ele>792.744385</ele>
        <time>2011-02-04T12:25:41Z</time>
      </trkpt>
      <trkpt lat="44.55665" lon="6.06756">
        <ele>792.744385</ele>
        <time>2011-02-04T12:25:42Z</time>
      </trkpt>
      <trkpt lat="44.55719" lon="6.06804">
        <ele>790.341064</ele>
        <time>2011-02-04T12:25:52Z</time>
      </trkpt>
      <trkpt lat="44.55745" lon="6.06807">
        <ele>789.379639</ele>
        <time>2011-02-04T12:25:56Z</time>
      </trkpt>
      <trkpt lat="44.55768" lon="6.0682">
        <ele>788.418457</ele>
        <time>2011-02-04T12:26:00Z</time>
      </trkpt>
      <trkpt lat="44.55775" lon="6.0683">
        <ele>787.937744</ele>
        <time>2011-02-04T12:26:02Z</time>
      </trkpt>
      <trkpt lat="44.55779" lon="6.06872">
        <ele>786.49585</ele>
        <time>2011-02-04T12:26:08Z</time>
      </trkpt>
      <trkpt lat="44.55764" lon="6.06926">
        <ele>783.611816</ele>
        <time>2011-02-04T12:26:14Z</time>
      </trkpt>
      <trkpt lat="44.55736" lon="6.06962">
        <ele>780.247314</ele>
        <time>2011-02-04T12:26:19Z</time>
      </trkpt>
      <trkpt lat="44.55718" lon="6.06984">
        <ele>778.324463</ele>
        <time>2011-02-04T12:26:22Z</time>
      </trkpt>
      <trkpt lat="44.55708" lon="6.07001">
        <ele>779.285645</ele>
        <time>2011-02-04T12:26:25Z</time>
      </trkpt>
      <trkpt lat="44.55703" lon="6.07014">
        <ele>779.766357</ele>
        <time>2011-02-04T12:26:27Z</time>
      </trkpt>
      <trkpt lat="44.55701" lon="6.07032">
        <ele>777.363281</ele>
        <time>2011-02-04T12:26:31Z</time>
      </trkpt>
      <trkpt lat="44.55701" lon="6.07052">
        <ele>777.84375</ele>
        <time>2011-02-04T12:26:34Z</time>
      </trkpt>
      <trkpt lat="44.55713" lon="6.07102">
        <ele>773.998535</ele>
        <time>2011-02-04T12:26:40Z</time>
      </trkpt>
      <trkpt lat="44.55717" lon="6.07111">
        <ele>773.998535</ele>
        <time>2011-02-04T12:26:41Z</time>
      </trkpt>
      <trkpt lat="44.55731" lon="6.07147">
        <ele>772.556641</ele>
        <time>2011-02-04T12:26:45Z</time>
      </trkpt>
      <trkpt lat="44.55746" lon="6.07166">
        <ele>770.634033</ele>
        <time>2011-02-04T12:26:48Z</time>
      </trkpt>
      <trkpt lat="44.55769" lon="6.07162">
        <ele>768.711426</ele>
        <time>2011-02-04T12:26:52Z</time>
      </trkpt>
      <trkpt lat="44.55782" lon="6.07128">
        <ele>768.230713</ele>
        <time>2011-02-04T12:26:57Z</time>
      </trkpt>
      <trkpt lat="44.55786" lon="6.07102">
        <ele>767.75</ele>
        <time>2011-02-04T12:27:00Z</time>
      </trkpt>
      <trkpt lat="44.55802" lon="6.07096">
        <ele>767.269531</ele>
        <time>2011-02-04T12:27:07Z</time>
      </trkpt>
      <trkpt lat="44.55802" lon="6.07106">
        <ele>766.308105</ele>
        <time>2011-02-04T12:27:09Z</time>
      </trkpt>
      <trkpt lat="44.55782" lon="6.07129">
        <ele>763.424072</ele>
        <time>2011-02-04T12:27:13Z</time>
      </trkpt>
      <trkpt lat="44.5578" lon="6.07145">
        <ele>761.020752</ele>
        <time>2011-02-04T12:27:18Z</time>
      </trkpt>
      <trkpt lat="44.55811" lon="6.07189">
        <ele>757.65625</ele>
        <time>2011-02-04T12:27:24Z</time>
      </trkpt>
      <trkpt lat="44.55811" lon="6.07193">
        <ele>757.65625</ele>
        <time>2011-02-04T12:27:25Z</time>
      </trkpt>
      <trkpt lat="44.55814" lon="6.07221">
        <ele>754.772217</ele>
        <time>2011-02-04T12:27:31Z</time>
      </trkpt>
      <trkpt lat="44.55815" lon="6.07228">
        <ele>754.772217</ele>
        <time>2011-02-04T12:27:32Z</time>
      </trkpt>
      <trkpt lat="44.55819" lon="6.07265">
        <ele>750.446533</ele>
        <time>2011-02-04T12:27:37Z</time>
      </trkpt>
      <trkpt lat="44.55821" lon="6.07279">
        <ele>749.96582</ele>
        <time>2011-02-04T12:27:39Z</time>
      </trkpt>
      <trkpt lat="44.55818" lon="6.07321">
        <ele>747.081543</ele>
        <time>2011-02-04T12:27:46Z</time>
      </trkpt>
      <trkpt lat="44.55817" lon="6.07359">
        <ele>744.678223</ele>
        <time>2011-02-04T12:27:53Z</time>
      </trkpt>
      <trkpt lat="44.55817" lon="6.07389">
        <ele>743.717041</ele>
        <time>2011-02-04T12:28:01Z</time>
      </trkpt>
      <trkpt lat="44.55817" lon="6.07416">
        <ele>744.678223</ele>
        <time>2011-02-04T12:28:14Z</time>
      </trkpt>
      <trkpt lat="44.55846" lon="6.07463">
        <ele>746.120361</ele>
        <time>2011-02-04T12:28:23Z</time>
      </trkpt>
      <trkpt lat="44.55876" lon="6.07416">
        <ele>747.562256</ele>
        <time>2011-02-04T12:28:31Z</time>
      </trkpt>
      <trkpt lat="44.55883" lon="6.07418">
        <ele>749.004395</ele>
        <time>2011-02-04T12:28:42Z</time>
      </trkpt>
      <trkpt lat="44.55883" lon="6.07418">
        <ele>748.523682</ele>
        <time>2011-02-04T12:29:09Z</time>
      </trkpt>
    </trkseg>
  </trk>
</gpx>